Flight Track Log - Related Links

Times and Time Zones

All times are in EDT time to prevent confusion due to time zone crossing. See the ELY27 flight status page for this flight to view local times or setup timezone preferences in your user account.

Time Position Orientation Groundspeed Altitude Reporting Facility
EDT Latitude Longitude Course Direction KTS MPH feet Rate Location/Type
Thu 05:56:00 PM 32.1308 34.6872 322° Northwest  Level FlightAware Approximate
Thu 05:57:00 PM 32.2274 34.5983 322° Northwest  Level FlightAware Approximate
Thu 05:58:00 PM 32.3239 34.5093 322° Northwest  Level FlightAware Approximate
Thu 05:59:00 PM 32.4204 34.4200 322° Northwest  Level FlightAware Approximate
Thu 06:00:00 PM 32.5168 34.3306 322° Northwest  Level FlightAware Approximate
Thu 06:01:00 PM 32.6146 34.2396 322° Northwest  Level FlightAware Approximate
Thu 06:02:00 PM 32.7123 34.1484 322° Northwest  Level FlightAware Approximate
Thu 06:03:00 PM 32.8099 34.0571 322° Northwest  Level FlightAware Approximate
Thu 06:03:10 PM 32.2086 34.1188 296° West 360 414 12,400  Level FlightAware ADS-B (LLHA / HFA)
Thu 06:03:40 PM 32.2304 34.0657 296° West 365 420 13,400 2,100 Climbing FlightAware ADS-B (LLHA / HFA)
Thu 06:04:10 PM 32.2526 34.0119 296° West 369 425 14,500 2,200 Climbing FlightAware ADS-B (LLHA / HFA)
Thu 06:04:40 PM 32.2753 33.9565 296° West 370 426 15,600 2,100 Climbing FlightAware ADS-B (LLHA / HFA)
Thu 06:05:10 PM 32.2981 33.9023 299° West 373 429 16,600 2,000 Climbing FlightAware ADS-B (LLHA / HFA)
Thu 06:05:43 PM 32.3249 33.8477 302° West 372 428 17,700 2,000 Climbing FlightAware ADS-B (LLHA / HFA)
Thu 06:06:13 PM 32.3539 33.7938 303° West 376 433 18,700 1,967 Climbing FlightAware ADS-B (LLHA / HFA)
Thu 06:06:44 PM 32.3839 33.7397 304° West 377 434 19,700 1,935 Climbing FlightAware ADS-B (LLHA / HFA)
Thu 06:07:15 PM 32.4145 33.6845 304° West 377 434 20,700 1,869 Climbing FlightAware ADS-B (LLHA / HFA)
Thu 06:07:45 PM 32.4429 33.6331 304° West 377 434 21,600 1,800 Climbing FlightAware ADS-B (LLHA / HFA)
Thu 06:08:15 PM 32.4713 33.5808 304° West 377 434 22,500 1,770 Climbing FlightAware ADS-B (LLHA / HFA)
Thu 06:08:46 PM 32.5006 33.5268 303° West 382 440 23,400 1,770 Climbing FlightAware ADS-B (LLHA / HFA)
Thu 06:09:16 PM 32.5293 33.4740 303° West 380 437 24,300 1,627 Climbing FlightAware ADS-B (LLHA / HFA)
Thu 06:09:45 PM 32.5570 33.4225 303° West 383 441 25,000 1,322 Climbing FlightAware ADS-B (LLHA / HFA)
Thu 06:10:15 PM 32.5866 33.3680 303° West 383 441 25,600 1,100 Climbing FlightAware ADS-B (LLHA / HFA)
Thu 06:10:45 PM 32.6153 33.3146 303° West 383 441 26,100 1,100 Climbing FlightAware ADS-B (LLHA / HFA)
Thu 06:11:15 PM 32.6449 33.2597 303° West 383 441 26,700 1,200 Climbing FlightAware ADS-B (LLHA / HFA)
Thu 06:11:45 PM 32.6738 33.2060 303° West 383 441 27,300 1,300 Climbing FlightAware ADS-B (LLHA / HFA)
Thu 06:12:15 PM 32.7037 33.1503 303° West 383 441 28,000 1,500 Climbing FlightAware ADS-B (LLHA / HFA)
Thu 06:12:45 PM 32.7335 33.0949 303° West 383 441 28,800 1,895 Climbing FlightAware ADS-B (LLHA / HFA)
Thu 06:13:12 PM 32.7572 33.0506 303° West 377 434 29,800 1,263 Climbing FlightAware ADS-B (LLHA / HFA)
Thu 06:14:20 PM 32.8207 32.9316 303° West 381 438 30,800 984 Climbing FlightAware ADS-B (LLHA / HFA)
Thu 06:15:20 PM 32.8787 32.8229 303° West 377 434 31,900 590 Climbing FlightAware ADS-B (LLHA / HFA)
Thu 06:16:22 PM 32.9367 32.7138 303° West 377 434 32,000 61 Climbing FlightAware ADS-B (LLHA / HFA)
Thu 06:16:59 PM 32.9720 32.6471 303° West 377 434 32,000  Level FlightAware ADS-B (LLHA / HFA)
Thu 06:17:50 PM 33.0227 32.5511 303° West 377 434 32,000  Level FlightAware ADS-B (LLHA / HFA)
Thu 06:18:20 PM 33.0505 32.4984 303° West 377 434 32,000  Level FlightAware ADS-B (LLHA / HFA)
Thu 06:18:48 PM 33.0768 32.4485 360° North 382 440 32,000  Level FlightAware ADS-B
Thu 06:19:20 PM 33.1097 32.3861 303° West 377 434 32,000  Level FlightAware ADS-B (LLHA / HFA)
Thu 06:19:50 PM 33.1387 32.3310 303° West 377 434 32,000  Level FlightAware ADS-B (LLHA / HFA)
Thu 06:20:19 PM 33.1664 32.2779 360° North 319 367 32,000  Level FlightAware ADS-B
Thu 06:20:51 PM 33.1968 32.2200 303° West 377 434 32,000  Level FlightAware ADS-B (LLHA / HFA)
Thu 06:21:21 PM 33.2254 32.1653 303° West 377 434 32,000  Level FlightAware ADS-B (LLHA / HFA)
Thu 06:21:51 PM 33.2545 32.1095 303° West 377 434 32,000  Level FlightAware ADS-B (LLHA / HFA)
Thu 06:22:20 PM 33.2834 32.0542 303° West 377 434 32,000  Level FlightAware ADS-B (LLHA / HFA)
Thu 06:22:50 PM 33.3126 31.9982 303° West 377 434 32,000  Level FlightAware ADS-B (LLHA / HFA)
Thu 06:23:20 PM 33.3413 31.9428 303° West 377 434 32,000  Level FlightAware ADS-B (LLHA / HFA)
Thu 06:23:50 PM 33.3704 31.8867 303° West 377 434 32,000  Level FlightAware ADS-B (LLHA / HFA)
Thu 06:24:06 PM 33.3839 31.8606 360° North 401 461 32,000  Level FlightAware ADS-B
Thu 06:24:50 PM 33.4279 31.7758 303° West 377 434 32,000  Level FlightAware ADS-B (LLHA / HFA)
Thu 06:25:20 PM 33.4576 31.7184 303° West 377 434 32,000  Level FlightAware ADS-B (LLHA / HFA)
Thu 06:25:51 PM 33.4858 31.6635 303° West 377 434 32,000  Level FlightAware ADS-B (LLHA / HFA)
Thu 06:26:20 PM 33.5137 31.6092 303° West 377 434 32,000  Level FlightAware ADS-B (LLHA / HFA)
Thu 06:26:45 PM 33.5379 31.5624 303° West 377 434 32,000  Level FlightAware ADS-B (LLHA / HFA)
Thu 06:27:20 PM 33.5728 31.4943 303° West 377 434 32,000  Level FlightAware ADS-B (LLHA / HFA)
Thu 06:27:36 PM 33.5866 31.4674 303° West 377 434 32,000  Level FlightAware ADS-B (LLHA / HFA)
Thu 06:28:20 PM 33.6325 31.3778 303° West 377 434 32,000  Level FlightAware ADS-B (LLHA / HFA)
Thu 06:28:50 PM 33.6617 31.3207 303° West 377 434 32,000  Level FlightAware ADS-B (LLHA / HFA)
Thu 06:29:21 PM 33.6907 31.2639 303° West 377 434 32,000  Level FlightAware ADS-B (LLHA / HFA)
Thu 06:29:51 PM 33.7202 31.2058 303° West 377 434 32,000  Level FlightAware ADS-B (LLHA / HFA)
Thu 06:30:21 PM 33.7494 31.1484 303° West 377 434 32,000  Level FlightAware ADS-B (LLHA / HFA)
Thu 06:30:50 PM 33.7784 31.0912 303° West 377 434 32,000  Level FlightAware ADS-B (LLHA / HFA)
Thu 06:31:20 PM 33.8073 31.0344 303° West 377 434 32,000  Level FlightAware ADS-B (LLHA / HFA)
Thu 06:31:37 PM 33.8228 31.0036 303° West 377 434 32,000  Level FlightAware ADS-B (LLHA / HFA)
Thu 06:32:20 PM 33.8662 30.9179 303° West 377 434 32,000  Level FlightAware ADS-B (LLHA / HFA)
Thu 06:32:50 PM 33.8941 30.8624 303° West 377 434 32,000  Level FlightAware ADS-B (LLHA / HFA)
Thu 06:33:21 PM 33.9236 30.8038 303° West 377 434 32,000  Level FlightAware ADS-B (LLHA / HFA)
Thu 06:33:50 PM 33.9492 30.7529 303° West 377 434 32,000  Level FlightAware ADS-B (LLHA / HFA)
Thu 06:33:56 PM 33.9585 30.7344 303° West 377 434 32,000  Level FlightAware ADS-B (LLHA / HFA)
Thu 06:34:40 PM 34.0012 30.6494 301° West 402 463 32,000  Level FlightAware ADS-B
Thu 06:35:11 PM 34.0313 30.5894 301° West 472 543 32,000  Level FlightAware ADS-B
Thu 06:35:41 PM 34.0604 30.5310 301° West 474 545 32,000  Level FlightAware ADS-B
Thu 06:36:10 PM 34.0890 30.4738 301° West 474 545 32,000  Level FlightAware ADS-B
Thu 06:36:40 PM 34.1180 30.4156 301° West 487 560 32,000  Level FlightAware ADS-B
Thu 06:36:49 PM 34.1250 30.4016 360° North 406 467 32,000  Level FlightAware ADS-B
Thu 06:39:22 PM 34.2756 30.0989 360° North 382 440 32,000  Level FlightAware ADS-B
Thu 06:40:35 PM 34.3543 29.9571 305° West 412 474 32,000  Level FlightAware ADS-B
Thu 06:41:05 PM 34.3838 29.9053 305° West 413 475 32,000 14 Level FlightAware ADS-B
Thu 06:43:00 PM 34.5402 29.6876 311° West  Level Estimated
Thu 06:44:00 PM 34.6217 29.5737 311° West  Level Estimated
Thu 06:45:00 PM 34.7030 29.4595 311° West  Level Estimated
Thu 06:46:00 PM 34.7843 29.3451 311° West  Level Estimated
Thu 06:47:00 PM 34.8654 29.2305 311° West  Level Estimated
Thu 06:48:00 PM 34.9465 29.1157 311° West  Level Estimated
Thu 06:49:00 PM 35.0274 29.0006 311° West  Level Estimated
Thu 06:50:00 PM 35.1082 28.8853 311° West  Level Estimated
Thu 06:51:00 PM 35.1889 28.7698 311° West  Level Estimated
Thu 06:52:00 PM 35.2695 28.6540 310° West  Level Estimated
Thu 06:53:00 PM 35.3500 28.5381 310° West  Level Estimated
Thu 06:54:00 PM 35.4304 28.4219 310° West  Level Estimated
Thu 06:55:00 PM 35.5107 28.3054 310° West  Level Estimated
Thu 06:56:00 PM 35.5908 28.1887 310° West  Level Estimated
Thu 06:57:00 PM 35.6708 28.0718 310° West  Level Estimated
Thu 06:58:00 PM 35.7508 27.9547 310° West  Level Estimated
Thu 06:59:00 PM 35.8306 27.8373 310° West  Level Estimated
Thu 07:00:00 PM 35.9103 27.7197 310° West  Level Estimated
Thu 07:01:00 PM 35.9899 27.6018 310° West  Level Estimated
Thu 07:02:00 PM 36.0694 27.4837 310° West  Level Estimated
Thu 07:03:00 PM 36.1487 27.3654 310° West  Level Estimated
Thu 07:04:00 PM 36.2280 27.2468 310° West  Level Estimated
Thu 07:05:00 PM 36.3071 27.1280 310° West  Level Estimated
Thu 07:06:00 PM 36.3861 27.0090 310° West  Level Estimated
Thu 07:07:00 PM 36.4650 26.8897 309° West  Level Estimated
Thu 07:08:00 PM 36.5437 26.7701 309° West  Level Estimated
Thu 07:09:00 PM 36.6224 26.6504 309° West  Level Estimated
Thu 07:10:00 PM 36.7009 26.5303 309° West  Level Estimated
Thu 07:11:00 PM 36.7793 26.4101 309° West  Level Estimated
Thu 07:12:00 PM 36.8576 26.2896 309° West  Level Estimated
Thu 07:13:00 PM 36.9357 26.1688 309° West  Level Estimated
Thu 07:14:00 PM 37.0138 26.0478 309° West  Level Estimated
Thu 07:15:00 PM 37.0917 25.9265 309° West  Level Estimated
Thu 07:16:00 PM 37.1695 25.8050 309° West  Level Estimated
Thu 07:17:00 PM 37.2472 25.6833 309° West  Level Estimated
Thu 07:18:00 PM 37.3247 25.5613 309° West  Level Estimated
Thu 07:19:00 PM 37.4021 25.4390 309° West  Level Estimated
Thu 07:20:00 PM 37.4794 25.3165 309° West  Level Estimated
Thu 07:21:00 PM 37.5566 25.1937 308° West  Level Estimated
Thu 07:22:00 PM 37.6336 25.0707 308° West  Level Estimated
Thu 07:23:00 PM 37.7105 24.9474 308° West  Level Estimated
Thu 07:24:00 PM 37.7873 24.8239 308° West  Level Estimated
Thu 07:25:00 PM 37.8640 24.7001 308° West  Level Estimated
Thu 07:26:00 PM 37.9405 24.5760 308° West  Level Estimated
Thu 07:27:00 PM 38.0169 24.4517 308° West  Level Estimated
Thu 07:28:00 PM 38.0931 24.3272 308° West  Level Estimated
Thu 07:29:00 PM 38.1693 24.2024 308° West  Level Estimated
Thu 07:30:00 PM 38.2453 24.0773 308° West  Level Estimated
Thu 07:31:00 PM 38.3211 23.9519 308° West  Level Estimated
Thu 07:32:00 PM 38.3969 23.8263 308° West  Level Estimated
Thu 07:33:00 PM 38.4724 23.7004 308° West  Level Estimated
Thu 07:34:00 PM 38.5479 23.5743 307° West  Level Estimated
Thu 07:35:00 PM 38.6232 23.4479 307° West  Level Estimated
Thu 07:36:00 PM 38.6984 23.3212 307° West  Level Estimated
Thu 07:37:00 PM 38.7735 23.1943 307° West  Level Estimated
Thu 07:38:00 PM 38.8484 23.0671 307° West  Level Estimated
Thu 07:39:00 PM 38.9231 22.9396 307° West  Level Estimated
Thu 07:40:00 PM 38.9978 22.8119 307° West  Level Estimated
Thu 07:41:00 PM 39.0723 22.6839 307° West  Level Estimated
Thu 07:42:00 PM 39.1466 22.5556 307° West  Level Estimated
Thu 07:43:00 PM 39.2209 22.4271 307° West  Level Estimated
Thu 07:44:00 PM 39.2949 22.2982 307° West  Level Estimated
Thu 07:45:00 PM 39.3689 22.1691 307° West  Level Estimated
Thu 07:46:00 PM 39.4426 22.0398 306° West  Level Estimated
Thu 07:47:00 PM 39.5163 21.9102 306° West  Level Estimated
Thu 07:48:00 PM 39.5898 21.7802 306° West  Level Estimated
Thu 07:49:00 PM 39.6632 21.6500 306° West  Level Estimated
Thu 07:50:00 PM 39.7364 21.5196 306° West  Level Estimated
Thu 07:51:00 PM 39.8094 21.3888 306° West  Level Estimated
Thu 07:52:00 PM 39.8824 21.2578 306° West  Level Estimated
Thu 07:53:00 PM 39.9551 21.1265 306° West  Level Estimated
Thu 07:54:00 PM 40.0277 20.9949 306° West  Level Estimated
Thu 07:55:00 PM 40.1002 20.8631 306° West  Level Estimated
Thu 07:56:00 PM 40.1725 20.7309 306° West  Level Estimated
Thu 07:57:00 PM 40.2447 20.5985 306° West  Level Estimated
Thu 07:58:00 PM 40.3167 20.4658 305° West  Level Estimated
Thu 07:59:00 PM 40.3886 20.3328 305° West  Level Estimated
Thu 08:00:00 PM 40.4603 20.1995 305° West  Level Estimated
Thu 08:01:00 PM 40.5319 20.0660 305° West  Level Estimated
Thu 08:02:00 PM 40.6033 19.9321 305° West  Level Estimated
Thu 08:03:00 PM 40.6745 19.7980 305° West  Level Estimated
Thu 08:04:00 PM 40.7456 19.6636 305° West  Level Estimated
Thu 08:05:00 PM 40.8166 19.5289 305° West  Level Estimated
Thu 08:06:00 PM 40.8873 19.3939 305° West  Level Estimated
Thu 08:07:00 PM 40.9580 19.2586 305° West  Level Estimated
Thu 08:08:00 PM 41.0285 19.1231 305° West  Level Estimated
Thu 08:09:00 PM 41.0988 18.9872 305° West  Level Estimated
Thu 08:10:00 PM 41.1689 18.8511 304° West  Level Estimated
Thu 08:11:00 PM 41.2389 18.7146 304° West  Level Estimated
Thu 08:12:00 PM 41.3087 18.5779 304° West  Level Estimated
Thu 08:13:00 PM 41.3784 18.4409 304° West  Level Estimated
Thu 08:14:00 PM 41.4479 18.3035 304° West  Level Estimated
Thu 08:15:00 PM 41.5172 18.1659 304° West  Level Estimated
Thu 08:16:00 PM 41.5864 18.0280 304° West  Level Estimated
Thu 08:17:00 PM 41.6554 17.8898 304° West  Level Estimated
Thu 08:18:00 PM 41.7243 17.7513 304° West  Level Estimated
Thu 08:19:00 PM 41.7929 17.6125 304° West  Level Estimated
Thu 08:20:00 PM 41.8614 17.4734 304° West  Level Estimated
Thu 08:21:00 PM 41.9298 17.3340 303° West  Level Estimated
Thu 08:22:00 PM 41.9980 17.1943 303° West  Level Estimated
Thu 08:23:00 PM 42.0659 17.0544 303° West  Level Estimated
Thu 08:24:00 PM 42.1338 16.9141 303° West  Level Estimated
Thu 08:25:00 PM 42.2014 16.7735 303° West  Level Estimated
Thu 08:26:00 PM 42.2689 16.6326 303° West  Level Estimated
Thu 08:27:00 PM 42.3363 16.4914 303° West  Level Estimated
Thu 08:28:00 PM 42.4034 16.3499 303° West  Level Estimated
Thu 08:29:00 PM 42.4704 16.2081 303° West  Level Estimated
Thu 08:30:00 PM 42.5372 16.0660 303° West  Level Estimated
Thu 08:31:00 PM 42.6038 15.9236 302° West  Level Estimated
Thu 08:32:00 PM 42.6702 15.7809 302° West  Level Estimated
Thu 08:33:00 PM 42.7365 15.6379 302° West  Level Estimated
Thu 08:34:00 PM 42.8026 15.4945 302° West  Level Estimated
Thu 08:35:00 PM 42.8685 15.3509 302° West  Level Estimated
Thu 08:36:00 PM 42.9342 15.2070 302° West  Level Estimated
Thu 08:37:00 PM 42.9997 15.0627 302° West  Level Estimated
Thu 08:38:00 PM 43.0651 14.9182 302° West  Level Estimated
Thu 08:39:00 PM 43.1303 14.7733 302° West  Level Estimated
Thu 08:40:00 PM 43.1953 14.6282 302° West  Level Estimated
Thu 08:41:00 PM 43.2601 14.4827 301° West  Level Estimated
Thu 08:42:00 PM 43.3247 14.3369 301° West  Level Estimated
Thu 08:43:00 PM 43.3891 14.1908 301° West  Level Estimated
Thu 08:44:00 PM 43.4534 14.0444 301° West  Level Estimated
Thu 08:45:00 PM 43.5175 13.8977 301° West  Level Estimated
Thu 08:46:00 PM 43.5814 13.7507 301° West  Level Estimated
Thu 08:47:00 PM 43.6451 13.6034 301° West  Level Estimated
Thu 08:48:00 PM 43.7085 13.4557 301° West  Level Estimated
Thu 08:49:00 PM 43.7719 13.3077 301° West  Level Estimated
Thu 08:50:00 PM 43.8350 13.1595 301° West  Level Estimated
Thu 08:51:00 PM 43.8979 13.0109 300° West  Level Estimated
Thu 08:52:00 PM 43.9607 12.8620 300° West  Level Estimated
Thu 08:53:00 PM 44.0232 12.7128 300° West  Level Estimated
Thu 08:54:00 PM 44.0855 12.5632 300° West  Level Estimated
Thu 08:55:00 PM 44.1477 12.4134 300° West  Level Estimated
Thu 08:56:00 PM 44.2096 12.2632 300° West  Level Estimated
Thu 08:57:00 PM 44.2714 12.1127 300° West  Level Estimated
Thu 08:58:00 PM 44.3330 11.9620 300° West  Level Estimated
Thu 08:59:00 PM 44.3943 11.8108 300° West  Level Estimated
Thu 09:00:00 PM 44.4555 11.6594 300° West  Level Estimated
Thu 09:01:00 PM 44.5165 11.5077 299° West  Level Estimated
Thu 09:02:00 PM 44.5772 11.3556 299° West  Level Estimated
Thu 09:03:00 PM 44.6378 11.2032 299° West  Level Estimated
Thu 09:04:00 PM 44.6981 11.0505 299° West  Level Estimated
Thu 09:05:00 PM 44.7583 10.8975 299° West  Level Estimated
Thu 09:06:00 PM 44.8182 10.7442 299° West  Level Estimated
Thu 09:07:00 PM 44.8780 10.5905 299° West  Level Estimated
Thu 09:08:00 PM 44.9375 10.4366 299° West  Level Estimated
Thu 09:08:27 PM 45.6117 12.2249 302° West 475 547 34,000  Level FlightAware ADS-B (EDDM / MUC)
Thu 09:08:57 PM 45.6470 12.1448 302° West 476 548 34,000  Level FlightAware ADS-B (EDDM / MUC)
Thu 09:09:37 PM 45.6937 12.0385 302° West 477 549 34,000  Level FlightAware ADS-B (EDDM / MUC)
Thu 09:10:07 PM 45.7287 11.9585 302° West 477 549 34,000  Level FlightAware ADS-B (EDDM / MUC)
Thu 09:10:49 PM 45.7775 11.8467 302° West 478 550 34,000  Level FlightAware ADS-B (ETSE)
Thu 09:11:19 PM 45.8122 11.7666 302° West 479 551 34,000  Level FlightAware ADS-B (EDDM / MUC)
Thu 09:11:59 PM 45.8550 11.6682 302° West 479 551 34,000  Level FlightAware ADS-B (ETSE)
Thu 09:12:30 PM 45.8928 11.5805 302° West 478 550 34,000  Level FlightAware ADS-B (LIPT / VIC)
Thu 09:13:01 PM 45.9315 11.4904 302° West 479 551 34,000  Level FlightAware ADS-B (EDDM / MUC)
Thu 09:13:32 PM 45.9673 11.4071 302° West 479 551 34,000  Level FlightAware ADS-B (EDDM / MUC)
Thu 09:14:02 PM 46.0019 11.3263 302° West 481 554 34,000  Level FlightAware ADS-B (ETSE)
Thu 09:14:32 PM 46.0361 11.2461 302° West 484 557 34,000  Level FlightAware ADS-B (ETSE)
Thu 09:15:07 PM 46.0781 11.1478 301° West 487 560 34,000  Level FlightAware ADS-B (EDDM / MUC)
Thu 09:15:38 PM 46.1124 11.0669 301° West 489 563 34,000  Level FlightAware ADS-B (EDDM / MUC)
Thu 09:16:11 PM 46.1526 10.9718 301° West 491 565 34,000  Level FlightAware ADS-B (ETSE)
Thu 09:16:41 PM 46.1887 10.8857 301° West 492 566 34,000  Level FlightAware ADS-B (ETSE)
Thu 09:17:12 PM 46.2251 10.7993 301° West 493 567 34,000  Level FlightAware ADS-B (ETSE)
Thu 09:17:43 PM 46.2621 10.7108 301° West 495 570 34,000  Level FlightAware ADS-B (EDDM / MUC)
Thu 09:18:23 PM 46.3078 10.6013 301° West 494 568 34,000  Level FlightAware ADS-B (ETSE)
Thu 09:18:53 PM 46.3440 10.5142 301° West 494 568 34,000  Level FlightAware ADS-B (EDDM / MUC)
Thu 09:19:01 PM 46.3532 10.4930 303° West 494 568 34,000  Level FlightAware ADS-B (ETSE)
Thu 09:19:20 PM 46.3714 10.4551 305° West 494 568 34,000  Level FlightAware ADS-B (EDDM / MUC)
Thu 09:19:56 PM 46.4291 10.3494 310° West 494 568 34,000  Level FlightAware ADS-B (ETSE)
Thu 09:20:26 PM 46.4732 10.2730 310° West 493 567 34,000  Level FlightAware ADS-B (ETSE)
Thu 09:20:56 PM 46.5174 10.1975 310° West 494 568 34,000  Level FlightAware ADS-B (ETSE)
Thu 09:21:26 PM 46.5569 10.1299 310° West 493 567 34,000  Level FlightAware ADS-B (EDDM / MUC)
Thu 09:21:56 PM 46.6056 10.0468 310° West 484 557 34,000  Level FlightAware ADS-B (EDDM / MUC)
Thu 09:22:26 PM 46.6490 9.9722 310° West 478 550 34,000  Level FlightAware ADS-B (EDDM / MUC)
Thu 09:22:58 PM 46.6935 9.8959 310° West 478 550 34,000  Level FlightAware ADS-B (EDDM / MUC)
Thu 09:23:35 PM 46.7478 9.8023 310° West 476 548 34,000  Level FlightAware ADS-B (ETSE)
Thu 09:24:08 PM 46.7924 9.7251 311° West 473 544 34,000  Level FlightAware ADS-B (EDDM / MUC)
Thu 09:24:42 PM 46.8383 9.6459 310° West 472 543 34,000  Level FlightAware ADS-B (EDDM / MUC)
Thu 09:25:13 PM 46.8682 9.5938 310° West 471 542 34,000  Level FlightAware ADS-B (EDDM / MUC)
Thu 09:25:48 PM 46.9316 9.4836 310° West 470 541 34,000  Level FlightAware ADS-B (ETSE)
Thu 09:26:18 PM 46.9747 9.4082 310° West 470 541 34,000  Level FlightAware ADS-B (ETSE)
Thu 09:26:48 PM 47.0158 9.3358 310° West 470 541 34,000  Level FlightAware ADS-B (ETSE)
Thu 09:27:21 PM 47.0636 9.2518 310° West 471 542 34,000  Level FlightAware ADS-B (EDDM / MUC)
Thu 09:28:03 PM 47.1219 9.1491 310° West 470 541 34,000  Level FlightAware ADS-B (CYCD)
Thu 09:28:37 PM 47.1691 9.0656 309° West 468 539 34,000  Level FlightAware ADS-B (CYCD)
Thu 09:29:08 PM 47.2114 8.9902 310° West 469 540 34,000  Level FlightAware ADS-B (ETSE)
Thu 09:29:43 PM 47.2592 8.9051 309° West 466 536 34,000  Level FlightAware ADS-B (CYCD)
Thu 09:30:18 PM 47.3077 8.8182 309° West 468 539 34,000  Level FlightAware ADS-B (ETSE)
Thu 09:30:48 PM 47.3482 8.7456 310° West 466 536 34,000  Level FlightAware ADS-B (CYCD)
Thu 09:31:23 PM 47.3954 8.6609 310° West 465 535 34,000  Level FlightAware ADS-B (CYCD)
Thu 09:31:53 PM 47.4364 8.5869 309° West 465 535 34,000  Level FlightAware ADS-B (EDDM / MUC)
Thu 09:32:24 PM 47.4739 8.5192 309° West 465 535 34,000  Level FlightAware ADS-B (EDDM / MUC)
Thu 09:33:07 PM 47.5331 8.4120 309° West 465 535 34,000  Level FlightAware ADS-B (ETSE)
Thu 09:33:43 PM 47.5858 8.3160 309° West 464 534 34,000  Level FlightAware ADS-B (CYCD)
Thu 09:34:14 PM 47.6151 8.2625 309° West 462 532 34,000  Level FlightAware ADS-B (EDDM / MUC)
Thu 09:34:52 PM 47.6754 8.1521 309° West 461 531 34,000  Level FlightAware ADS-B (CYCD)
Thu 09:35:22 PM 47.7165 8.0765 309° West 464 534 34,000  Level FlightAware ADS-B (CYCD)
Thu 09:36:00 PM 47.7707 7.9766 309° West 467 537 34,000  Level FlightAware ADS-B (CYCD)
Thu 09:36:33 PM 47.8130 7.8983 309° West 467 537 34,000  Level FlightAware ADS-B (CYCD)
Thu 09:37:03 PM 47.8547 7.8209 309° West 465 535 34,000  Level FlightAware ADS-B (CYCD)
Thu 09:37:51 PM 47.9123 7.7135 309° West 464 534 34,000  Level FlightAware ADS-B (CYCD)
Thu 09:38:28 PM 47.9209 7.6975 308° West 466 536 34,000 264 Level FlightAware ADS-B (EDDM / MUC)
Thu 09:39:22 PM 48.0411 7.4720 308° West 464 534 34,400 638 Climbing FlightAware ADS-B (CYCD)
Thu 09:40:02 PM 48.0904 7.3791 308° West 463 533 35,000 813 Climbing FlightAware ADS-B (CYCD)
Thu 09:40:58 PM 48.1688 7.2304 308° West 464 534 35,700 527 Climbing FlightAware ADS-B (CYCD)
Thu 09:41:33 PM 48.2145 7.1436 308° West 470 541 35,800 261 Climbing FlightAware ADS-B (CYCD)
Thu 09:42:07 PM 48.2357 7.1032 308° West 470 541 36,000 150 Climbing FlightAware ADS-B (CYCD)
Thu 09:42:53 PM 48.3201 6.9413 308° West 469 540 36,000 -254 Level FlightAware ADS-B (CYCD)
Thu 09:50:00 PM 48.8776 5.8489 307° West 464 534 34,000 -399 Descending FlightAware ADS-B
Thu 09:53:09 PM 49.1218 5.3553 307° West 461 531 31,900 -773 Descending FlightAware ADS-B
Thu 09:53:45 PM 49.1671 5.2629 307° West 461 531 31,100 -1,342 Descending FlightAware ADS-B
Thu 09:54:25 PM 49.2193 5.1560 306° West 465 535 30,200 -846 Descending FlightAware ADS-B
Thu 09:55:03 PM 49.2689 5.0540 307° West 465 535 30,000 -169 Descending FlightAware ADS-B
Thu 09:55:36 PM 49.3103 4.9685 307° West 465 535 30,000  Level FlightAware ADS-B
Thu 09:56:22 PM 49.3695 4.8456 306° West 462 532 30,000  Level FlightAware ADS-B
Thu 09:57:01 PM 49.4182 4.7444 307° West 463 533 30,000  Level FlightAware ADS-B
Thu 09:58:40 PM 49.5431 4.4826 306° West 463 533 30,000  Level FlightAware ADS-B
Thu 09:59:21 PM 49.5952 4.3728 306° West 462 532 30,000  Level FlightAware ADS-B
Thu 09:59:56 PM 49.6399 4.2781 306° West 463 533 30,000 -90 Level FlightAware ADS-B
Thu 10:00:28 PM 49.6641 4.1450 306° West 587 676 29,900  Descending FlightAware UK
Thu 10:00:34 PM 49.6879 4.1760 306° West 465 535 30,000 171 Climbing FlightAware ADS-B (EGLF / FAB)
Thu 10:01:03 PM 49.7238 4.0947 331° Northwest 467 537 30,000  Level FlightAware UK
Thu 10:01:33 PM 49.7620 4.0158 307° West 417 480 30,000  Level FlightAware UK
Thu 10:01:44 PM 49.7744 3.9911 306° West 464 534 30,000  Level FlightAware ADS-B (EGLF / FAB)
Thu 10:02:14 PM 49.8107 3.9129 306° West 465 535 30,000  Level FlightAware ADS-B (EGLF / FAB)
Thu 10:02:45 PM 49.8509 3.8264 306° West 467 537 30,000  Level FlightAware ADS-B (EGLF / FAB)
Thu 10:03:15 PM 49.8892 3.7435 306° West 465 535 30,000  Level FlightAware ADS-B (EGLF / FAB)
Thu 10:03:45 PM 49.9258 3.6569 306° West 521 600 30,000  Level FlightAware UK
Thu 10:03:45 PM 49.9258 3.6642 306° West 462 532 30,000  Level FlightAware ADS-B (EGLF / FAB)
Thu 10:04:15 PM 49.9648 3.5790 306° West 521 600 30,000  Level FlightAware UK
Thu 10:04:15 PM 49.9608 3.5882 306° West 465 535 30,000  Level FlightAware ADS-B (EGLF / FAB)
Thu 10:04:45 PM 49.9984 3.5061 306° West 465 535 30,000  Level FlightAware ADS-B (EGLF / FAB)
Thu 10:05:15 PM 50.0383 3.4188 305° West 465 535 30,000  Level FlightAware ADS-B (EGLF / FAB)
Thu 10:05:45 PM 50.0748 3.3388 305° West 465 535 30,000  Level FlightAware ADS-B (EGLF / FAB)
Thu 10:06:15 PM 50.1119 3.2567 305° West 467 537 30,000  Level FlightAware ADS-B (EGLF / FAB)
Thu 10:06:50 PM 50.1575 3.1568 305° West 464 534 30,000  Level FlightAware UK
Thu 10:06:52 PM 50.1585 3.1542 304° West 460 529 30,000  Level FlightAware ADS-B
Thu 10:07:04 PM 50.1727 3.1224 304° West 461 531 30,000  Level FlightAware ADS-B (LERS / REU)
Thu 10:07:12 PM 50.1819 3.1021 304° West 461 531 30,000  Level FlightAware ADS-B (LERS / REU)
Thu 10:07:21 PM 50.1940 3.0752 304° West 461 531 30,000  Level FlightAware ADS-B (LERS / REU)
Thu 10:07:41 PM 50.2194 3.0187 304° West 462 532 30,000  Level FlightAware ADS-B
Thu 10:08:15 PM 50.2603 2.9274 305° West 467 537 30,000  Level FlightAware ADS-B (EGLF / FAB)
Thu 10:08:23 PM 50.2705 2.9048 304° West 462 532 30,000  Level FlightAware ADS-B (EGHH / BOH)
Thu 10:08:35 PM 50.2855 2.8712 305° West 467 537 30,000  Level FlightAware ADS-B (EGLF / FAB)
Thu 10:08:45 PM 50.2976 2.8440 304° West 463 533 30,000  Level FlightAware ADS-B (LERS / REU)
Thu 10:09:05 PM 50.3229 2.7871 304° West 462 532 30,000  Level FlightAware ADS-B (EGHH / BOH)
Thu 10:09:35 PM 50.3597 2.7047 305° West 468 539 30,000  Level FlightAware ADS-B (EGLF / FAB)
Thu 10:09:46 PM 50.3725 2.6758 304° West 469 540 30,000  Level FlightAware ADS-B
Thu 10:10:01 PM 50.3907 2.6344 305° West 470 541 30,000  Level FlightAware ADS-B
Thu 10:10:32 PM 50.4269 2.5459 300° West 470 541 30,000  Level FlightAware ADS-B
Thu 10:11:05 PM 50.4613 2.4441 297° West 467 537 30,000  Level FlightAware ADS-B (EGLF / FAB)
Thu 10:11:16 PM 50.4711 2.4126 295° West 463 533 30,000  Level FlightAware ADS-B
Thu 10:11:20 PM 50.4753 2.3992 295° West 463 533 30,000  Level FlightAware ADS-B (LERS / REU)
Thu 10:11:30 PM 50.4842 2.3707 295° West 463 533 30,000  Level FlightAware ADS-B (LERS / REU)
Thu 10:11:36 PM 50.4903 2.3506 295° West 462 532 30,000  Level FlightAware ADS-B
Thu 10:11:56 PM 50.5090 2.2891 295° West 463 533 30,000  Level FlightAware ADS-B
Thu 10:12:31 PM 50.5387 2.1901 295° West 465 535 30,000  Level FlightAware ADS-B
Thu 10:13:02 PM 50.5689 2.0894 295° West 466 536 30,000  Level FlightAware ADS-B
Thu 10:13:34 PM 50.5984 1.9904 295° West 464 534 30,000  Level FlightAware ADS-B
Thu 10:14:05 PM 50.6263 1.8963 295° West 465 535 30,000  Level FlightAware ADS-B (EGLF / FAB)
Thu 10:14:35 PM 50.6527 1.8071 295° West 464 534 30,000  Level FlightAware ADS-B (EGLF / FAB)
Thu 10:15:05 PM 50.6808 1.7117 295° West 463 533 30,000  Level FlightAware ADS-B (EGLF / FAB)
Thu 10:15:35 PM 50.7073 1.6212 295° West 464 534 30,000  Level FlightAware ADS-B (EGLF / FAB)
Thu 10:15:46 PM 50.7170 1.5882 295° West 464 534 30,000  Level FlightAware ADS-B
Thu 10:16:05 PM 50.7340 1.5300 295° West 464 534 30,000  Level FlightAware ADS-B (EGLF / FAB)
Thu 10:16:16 PM 50.7442 1.4950 295° West 464 534 30,000  Level FlightAware ADS-B
Thu 10:16:35 PM 50.7610 1.4374 295° West 463 533 30,000  Level FlightAware ADS-B (EGLF / FAB)
Thu 10:16:46 PM 50.7711 1.4024 295° West 464 534 30,000  Level FlightAware ADS-B
Thu 10:17:09 PM 50.7912 1.3330 295° West 463 533 30,000  Level FlightAware ADS-B (LERS / REU)
Thu 10:17:41 PM 50.8169 1.2440 295° West 463 533 30,000  Level FlightAware ADS-B (EGLC / LCY)
Thu 10:18:11 PM 50.8460 1.1434 294° West 462 532 30,000  Level FlightAware ADS-B (EGLC / LCY)
Thu 10:18:31 PM 50.8637 1.0814 293° West 459 528 30,000  Level FlightAware ADS-B (LERS / REU)
Thu 10:18:42 PM 50.8735 1.0471 293° West 458 527 30,000  Level FlightAware ADS-B (LERS / REU)
Thu 10:18:54 PM 50.8843 1.0098 293° West 458 527 30,000  Level FlightAware ADS-B (LERS / REU)
Thu 10:19:25 PM 50.9114 0.9139 294° West 461 531 30,000  Level FlightAware ADS-B (EGLF / FAB)
Thu 10:19:31 PM 50.9158 0.8986 294° West 462 532 30,000  Level FlightAware ADS-B
Thu 10:19:50 PM 50.9330 0.8384 294° West 461 531 30,000  Level FlightAware ADS-B
Thu 10:19:56 PM 50.9381 0.8205 293° West 458 527 30,000  Level FlightAware ADS-B (LERS / REU)
Thu 10:20:20 PM 50.9595 0.7450 294° West 460 529 30,000  Level FlightAware ADS-B
Thu 10:20:45 PM 50.9806 0.6700 293° West 458 527 30,000  Level FlightAware ADS-B (LERS / REU)
Thu 10:20:48 PM 50.9815 0.6670 294° West 461 531 30,000  Level FlightAware ADS-B (EGHS)
Thu 10:20:51 PM 50.9858 0.6515 294° West 461 531 30,000  Level FlightAware ADS-B
Thu 10:20:57 PM 50.9907 0.6343 293° West 458 527 30,000  Level FlightAware ADS-B (LERS / REU)
Thu 10:21:08 PM 51.0004 0.5998 294° West 460 529 30,000  Level FlightAware ADS-B (EGHS)
Thu 10:21:18 PM 51.0095 0.5673 293° West 457 526 30,000  Level FlightAware ADS-B
Thu 10:21:21 PM 51.0121 0.5580 294° West 460 529 30,000  Level FlightAware ADS-B
Thu 10:21:27 PM 51.0159 0.5445 294° West 460 529 30,000  Level FlightAware ADS-B (EGLC / LCY)
Thu 10:21:40 PM 51.0277 0.5020 294° West 460 529 30,000  Level FlightAware ADS-B (EGLC / LCY)
Thu 10:21:51 PM 51.0379 0.4656 294° West 461 531 30,000  Level FlightAware ADS-B
Thu 10:21:54 PM 51.0403 0.4570 293° West 458 527 30,000  Level FlightAware ADS-B (LERS / REU)
Thu 10:21:58 PM 51.0441 0.4434 293° West 458 527 30,000  Level FlightAware ADS-B
Thu 10:22:22 PM 51.0641 0.3717 294° West 461 531 30,000  Level FlightAware ADS-B
Thu 10:22:31 PM 51.0715 0.3451 294° West 461 531 30,000  Level FlightAware ADS-B
Thu 10:22:43 PM 51.0819 0.3073 293° West 458 527 30,000  Level FlightAware ADS-B (LERS / REU)
Thu 10:22:52 PM 51.0901 0.2777 294° West 461 531 30,000  Level FlightAware ADS-B
Thu 10:22:55 PM 51.0922 0.2703 293° West 458 527 30,000  Level FlightAware ADS-B (LERS / REU)
Thu 10:23:07 PM 51.1028 0.2318 293° West 459 528 30,000  Level FlightAware ADS-B (LERS / REU)
Thu 10:23:22 PM 51.1160 0.1842 294° West 461 531 30,000  Level FlightAware ADS-B
Thu 10:23:38 PM 51.1296 0.1346 293° West 459 528 30,000  Level FlightAware ADS-B (LERS / REU)
Thu 10:23:52 PM 51.1417 0.0905 294° West 461 531 30,000 200 Level FlightAware ADS-B
Thu 10:24:08 PM 51.1549 0.0426 293° West 461 531 30,100 522 Climbing FlightAware ADS-B
Thu 10:24:15 PM 51.1640 0.0094 294° West 467 537 30,200 800 Climbing FlightAware ADS-B
Thu 10:24:23 PM 51.1674 -0.0032 293° West 468 539 30,300 667 Climbing FlightAware ADS-B
Thu 10:24:24 PM 51.1683 -0.0063 293° West 468 539 30,300 857 Level FlightAware ADS-B (EGLF / FAB)
Thu 10:24:30 PM 51.1726 -0.0221 293° West 465 535 30,400 1,200 Climbing FlightAware ADS-B (EGLC / LCY)
Thu 10:24:44 PM 51.1862 -0.0720 294° West 469 540 30,700 1,304 Climbing FlightAware ADS-B (EGLC / LCY)
Thu 10:24:53 PM 51.1934 -0.0986 293° West 469 540 30,900 1,714 Climbing FlightAware ADS-B
Thu 10:24:58 PM 51.1984 -0.1168 293° West 464 534 31,100 1,826 Climbing FlightAware ADS-B
Thu 10:25:16 PM 51.2126 -0.1690 292° West 462 532 31,600 1,680 Climbing FlightAware ADS-B (LERS / REU)
Thu 10:25:23 PM 51.2196 -0.1947 293° West 464 534 31,800 2,143 Climbing FlightAware ADS-B
Thu 10:25:30 PM 51.2268 -0.2209 293° West 463 533 32,100 1,548 Climbing FlightAware ADS-B
Thu 10:25:54 PM 51.2455 -0.2901 293° West 460 529 32,600 1,313 Climbing FlightAware ADS-B
Thu 10:26:02 PM 51.2505 -0.3088 293° West 461 531 32,800 800 Climbing FlightAware ADS-B
Thu 10:26:24 PM 51.2709 -0.3844 293° West 464 534 33,000 833 Climbing FlightAware ADS-B
Thu 10:26:38 PM 51.2813 -0.4233 293° West 463 533 33,300 1,286 Climbing FlightAware ADS-B
Thu 10:26:52 PM 51.2940 -0.4708 294° West 463 533 33,600 1,000 Climbing FlightAware ADS-B
Thu 10:26:56 PM 51.2972 -0.4828 293° West 463 533 33,600  Level FlightAware ADS-B
Thu 10:26:57 PM 51.2987 -0.4884 292° West 461 531 33,600 429 Level FlightAware ADS-B
Thu 10:27:10 PM 51.3094 -0.5281 293° West 465 535 33,700 720 Climbing FlightAware ADS-B (EGHS)
Thu 10:27:22 PM 51.3198 -0.5673 292° West 463 533 33,900 857 Climbing FlightAware ADS-B (LERS / REU)
Thu 10:27:24 PM 51.3207 -0.5704 294° West 465 535 33,900  Level FlightAware ADS-B
Thu 10:27:26 PM 51.3227 -0.5780 293° West 466 536 33,900 200 Level FlightAware ADS-B
Thu 10:27:54 PM 51.3464 -0.6670 293° West 464 534 34,000 200 Climbing FlightAware ADS-B
Thu 10:27:56 PM 51.3481 -0.6732 293° West 464 534 34,000  Level FlightAware ADS-B
Thu 10:28:02 PM 51.3528 -0.6908 294° West 464 534 34,000 207 Level FlightAware ADS-B
Thu 10:28:25 PM 51.3723 -0.7644 293° West 463 533 34,100  Climbing FlightAware ADS-B (EGLF / FAB)
Thu 10:28:26 PM 51.3735 -0.7688 293° West 462 532 34,000 -194 Descending FlightAware ADS-B
Thu 10:28:56 PM 51.3978 -0.8606 293° West 462 532 34,000  Level FlightAware ADS-B (EGLC / LCY)
Thu 10:28:57 PM 51.3987 -0.8643 293° West 462 532 34,000  Level FlightAware ADS-B
Thu 10:29:03 PM 51.4037 -0.8832 293° West 461 531 34,000  Level FlightAware ADS-B
Thu 10:29:26 PM 51.4227 -0.9554 293° West 463 533 34,000  Level FlightAware ADS-B (EGLF / FAB)
Thu 10:29:28 PM 51.4241 -0.9611 293° West 462 532 34,000  Level FlightAware ADS-B
Thu 10:29:33 PM 51.4281 -0.9762 293° West 462 532 34,000  Level FlightAware ADS-B
Thu 10:30:00 PM 51.4512 -1.0644 293° West 463 533 34,000  Level FlightAware ADS-B
Thu 10:30:02 PM 51.4502 -1.0606 293° West 463 533 34,000  Level FlightAware ADS-B
Thu 10:30:09 PM 51.4464 -1.0461 293° West 462 532 34,000  Level FlightAware ADS-B
Thu 10:30:31 PM 51.4760 -1.1604 292° West 463 533 34,000  Level FlightAware ADS-B
Thu 10:30:35 PM 51.4780 -1.1687 291° West 462 532 34,000  Level FlightAware ADS-B (EGLF / FAB)
Thu 10:30:47 PM 51.4873 -1.2118 287° West 460 529 34,000  Level FlightAware ADS-B (EGDM)
Thu 10:30:51 PM 51.4900 -1.2261 286° West 460 529 34,000  Level FlightAware ADS-B (LERS / REU)
Thu 10:31:01 PM 51.4956 -1.2582 285° West 458 527 34,000  Level FlightAware ADS-B
Thu 10:31:04 PM 51.4973 -1.2693 283° West 456 525 34,000  Level FlightAware ADS-B (LERS / REU)
Thu 10:31:16 PM 51.5021 -1.3043 280° West 455 524 34,000  Level FlightAware ADS-B (LERS / REU)
Thu 10:31:22 PM 51.5053 -1.3282 283° West 458 527 34,000  Level FlightAware ADS-B
Thu 10:31:28 PM 51.5087 -1.3457 290° West 462 532 34,000  Level FlightAware ADS-B
Thu 10:31:29 PM 51.5095 -1.3489 292° West 463 533 34,000  Level FlightAware ADS-B (LERS / REU)
Thu 10:31:31 PM 51.5119 -1.3577 295° West 464 534 34,000  Level FlightAware ADS-B
Thu 10:31:34 PM 51.5049 -1.3256 283° West 457 526 34,000  Level FlightAware ADS-B
Thu 10:31:38 PM 51.5193 -1.3794 299° West 466 536 34,000  Level FlightAware ADS-B
Thu 10:31:40 PM 51.5214 -1.3847 302° West 467 537 34,000  Level FlightAware ADS-B
Thu 10:31:41 PM 51.5221 -1.3864 301° West 463 533 34,000  Level FlightAware ADS-B (LERS / REU)
Thu 10:32:09 PM 51.5209 -1.3835 303° West 467 537 34,000  Level FlightAware ADS-B
Thu 10:32:11 PM 51.5579 -1.4732 303° West 468 539 34,000  Level FlightAware ADS-B
Thu 10:32:12 PM 51.5588 -1.4756 302° West 464 534 34,000  Level FlightAware ADS-B (EGDX / DGX)
Thu 10:32:20 PM 51.5681 -1.4990 301° West 464 534 34,000  Level FlightAware ADS-B
Thu 10:32:36 PM 51.5866 -1.5474 301° West 468 539 34,000  Level FlightAware ADS-B
Thu 10:32:47 PM 51.5982 -1.5791 299° West 463 533 34,000  Level FlightAware ADS-B (LERS / REU)
Thu 10:32:57 PM 51.6099 -1.6105 301° West 467 537 34,000  Level FlightAware ADS-B
Thu 10:33:07 PM 51.6209 -1.6387 302° West 467 537 34,000  Level FlightAware ADS-B
Thu 10:33:10 PM 51.6177 -1.6306 303° West 467 537 34,000  Level FlightAware ADS-B (EGHS)
Thu 10:33:37 PM 51.6568 -1.7269 304° West 467 537 34,000  Level FlightAware ADS-B
Thu 10:33:41 PM 51.6609 -1.7367 304° West 467 537 34,000  Level FlightAware ADS-B
Thu 10:33:48 PM 51.6698 -1.7579 305° West 467 537 34,000  Level FlightAware ADS-B
Thu 10:34:07 PM 51.6932 -1.8127 304° West 467 537 34,000  Level FlightAware ADS-B
Thu 10:34:35 PM 51.7272 -1.8938 304° West 467 537 34,000  Level FlightAware ADS-B (EGLF / FAB)
Thu 10:34:39 PM 51.7316 -1.9041 304° West 467 537 34,000  Level FlightAware ADS-B
Thu 10:35:05 PM 51.7631 -1.9795 304° West 466 536 34,000  Level FlightAware ADS-B (EGCW)
Thu 10:35:09 PM 51.7679 -1.9911 304° West 465 535 34,000  Level FlightAware ADS-B
Thu 10:35:35 PM 51.7982 -2.0636 304° West 467 537 34,000  Level FlightAware ADS-B (EGLF / FAB)
Thu 10:35:39 PM 51.8040 -2.0774 304° West 467 537 34,000  Level FlightAware ADS-B
Thu 10:36:06 PM 51.8356 -2.1537 304° West 468 539 34,000  Level FlightAware ADS-B (EGLF / FAB)
Thu 10:36:10 PM 51.8405 -2.1653 304° West 468 539 34,000  Level FlightAware ADS-B
Thu 10:36:36 PM 51.8720 -2.2412 304° West 468 539 34,000  Level FlightAware ADS-B (EGCW)
Thu 10:36:40 PM 51.8766 -2.2522 304° West 469 540 34,000  Level FlightAware ADS-B
Thu 10:37:06 PM 51.9070 -2.3261 304° West 469 540 34,000  Level FlightAware ADS-B (EGCW)
Thu 10:37:10 PM 51.9131 -2.3407 304° West 469 540 34,000  Level FlightAware ADS-B
Thu 10:37:36 PM 51.9435 -2.4147 304° West 470 541 34,000  Level FlightAware ADS-B (EGCW)
Thu 10:37:40 PM 51.9491 -2.4282 304° West 470 541 34,000  Level FlightAware ADS-B
Thu 10:38:06 PM 51.9786 -2.4999 304° West 469 540 34,000  Level FlightAware ADS-B (EGCW)
Thu 10:38:11 PM 51.9858 -2.5175 304° West 470 541 34,000  Level FlightAware ADS-B
Thu 10:38:36 PM 52.0164 -2.5924 303° West 468 539 34,000  Level FlightAware ADS-B (EGLC / LCY)
Thu 10:38:41 PM 52.0217 -2.6052 303° West 468 539 34,000  Level FlightAware ADS-B
Thu 10:38:51 PM 52.0267 -2.6175 303° West 468 539 34,000  Level FlightAware ADS-B
Thu 10:39:03 PM 52.0481 -2.6702 304° West 469 540 34,000  Level FlightAware ADS-B (EGDM)
Thu 10:39:26 PM 52.0758 -2.7382 303° West 468 539 34,000  Level FlightAware ADS-B (EGCW)
Thu 10:39:57 PM 52.1085 -2.8185 304° West 469 540 34,000  Level FlightAware ADS-B (EGLC / LCY)
Thu 10:40:28 PM 52.1486 -2.9179 303° West 470 541 34,000  Level FlightAware ADS-B
Thu 10:40:58 PM 52.1840 -3.0059 303° West 470 541 34,000  Level FlightAware ADS-B
Thu 10:41:21 PM 52.2121 -3.0756 303° West 470 541 34,000  Level FlightAware ADS-B
Thu 10:41:31 PM 52.2242 -3.1058 303° West 471 542 34,000  Level FlightAware ADS-B
Thu 10:41:51 PM 52.2480 -3.1652 303° West 471 542 34,000  Level FlightAware ADS-B
Thu 10:42:02 PM 52.2608 -3.1973 303° West 472 543 34,000  Level FlightAware ADS-B (EGDX / DGX)
Thu 10:42:21 PM 52.2841 -3.2556 303° West 472 543 34,000  Level FlightAware ADS-B
Thu 10:42:32 PM 52.2959 -3.2853 303° West 472 543 34,000  Level FlightAware ADS-B (EGDX / DGX)
Thu 10:42:51 PM 52.3198 -3.3455 303° West 472 543 34,000  Level FlightAware ADS-B
Thu 10:43:03 PM 52.3319 -3.3759 303° West 472 543 34,000  Level FlightAware ADS-B
Thu 10:43:21 PM 52.3553 -3.4351 303° West 472 543 34,000  Level FlightAware ADS-B
Thu 10:43:34 PM 52.3673 -3.4656 303° West 472 543 34,000  Level FlightAware ADS-B (EGLC / LCY)
Thu 10:43:51 PM 52.3909 -3.5254 303° West 471 542 34,000  Level FlightAware ADS-B
Thu 10:44:10 PM 52.4076 -3.5679 303° West 471 542 34,000  Level FlightAware ADS-B (EGLC / LCY)
Thu 10:44:22 PM 52.4268 -3.6168 303° West 470 541 34,000  Level FlightAware ADS-B
Thu 10:44:40 PM 52.4421 -3.6556 303° West 469 540 34,000  Level FlightAware ADS-B
Thu 10:44:54 PM 52.4643 -3.7124 303° West 469 540 34,000  Level FlightAware ADS-B
Thu 10:45:22 PM 52.4974 -3.7971 303° West 468 539 34,000  Level FlightAware ADS-B (EGXU / HRT)
Thu 10:45:52 PM 52.5315 -3.8847 302° West 467 537 34,000  Level FlightAware ADS-B
Thu 10:46:04 PM 52.5456 -3.9211 303° West 469 540 34,000  Level FlightAware ADS-B
Thu 10:46:13 PM 52.5532 -3.9407 303° West 467 537 34,000  Level FlightAware ADS-B (EGLC / LCY)
Thu 10:46:26 PM 52.5706 -3.9854 303° West 466 536 34,000  Level FlightAware ADS-B (EGCW)
Thu 10:47:00 PM 52.6080 -4.0822 302° West 467 537 34,000  Level FlightAware ADS-B (EGCW)
Thu 10:47:35 PM 52.6499 -4.1912 302° West 467 537 34,000  Level FlightAware ADS-B (EGCW)
Thu 10:47:59 PM 52.6773 -4.2627 302° West 467 537 34,000  Level FlightAware ADS-B (EGXU / HRT)
Thu 10:48:06 PM 52.6860 -4.2855 301° West 464 534 34,000  Level FlightAware ADS-B
Thu 10:48:11 PM 52.6915 -4.3000 302° West 467 537 34,000  Level FlightAware ADS-B
Thu 10:48:21 PM 52.7034 -4.3314 302° West 468 539 34,000  Level FlightAware ADS-B
Thu 10:48:34 PM 52.7177 -4.3687 301° West 465 535 34,000  Level FlightAware ADS-B (LERS / REU)
Thu 10:48:47 PM 52.7329 -4.4086 301° West 466 536 34,000  Level FlightAware ADS-B
Thu 10:49:05 PM 52.7543 -4.4648 301° West 465 535 34,000  Level FlightAware ADS-B
Thu 10:49:30 PM 52.7824 -4.5387 301° West 465 535 34,000  Level FlightAware ADS-B
Thu 10:49:40 PM 52.7938 -4.5691 301° West 466 536 34,000  Level FlightAware ADS-B (LERS / REU)
Thu 10:49:49 PM 52.8048 -4.5982 301° West 466 536 34,000  Level FlightAware ADS-B
Thu 10:50:19 PM 52.8367 -4.6828 302° West 471 542 34,000  Level FlightAware ADS-B
Thu 10:50:50 PM 52.8741 -4.7821 302° West 471 542 34,000  Level FlightAware ADS-B
Thu 10:51:21 PM 52.9029 -4.8591 302° West 471 542 34,000  Level FlightAware ADS-B
Thu 10:51:53 PM 52.9460 -4.9748 301° West 467 537 34,000  Level FlightAware ADS-B
Thu 10:52:25 PM 52.9831 -5.0743 302° West 472 543 34,000  Level FlightAware ADS-B (EGAA / BFS)
Thu 10:52:54 PM 53.0159 -5.1631 301° West 469 540 34,000  Level FlightAware ADS-B
Thu 10:53:24 PM 53.0496 -5.2545 301° West 474 545 34,000  Level FlightAware ADS-B (EGCW)
Thu 10:53:58 PM 53.0878 -5.3587 301° West 474 545 34,000  Level FlightAware ADS-B
Thu 10:54:33 PM 53.1281 -5.4688 301° West 476 548 34,000  Level FlightAware ADS-B (EGAA / BFS)
Thu 10:54:38 PM 53.1342 -5.4857 301° West 475 547 34,000  Level FlightAware ADS-B (EGCW)
Thu 10:55:11 PM 53.1727 -5.5912 301° West 476 548 34,000  Level FlightAware UK
Thu 10:55:14 PM 53.1752 -5.5983 301° West 476 548 34,000  Level FlightAware ADS-B
Thu 10:55:55 PM 53.2217 -5.7269 301° West 476 548 34,000  Level FlightAware ADS-B
Thu 10:56:26 PM 53.2568 -5.8243 301° West 477 549 34,000  Level FlightAware ADS-B (EGAA / BFS)
Thu 10:57:00 PM 53.2950 -5.9307 301° West 476 548 34,000  Level FlightAware ADS-B (EGAA / BFS)
Thu 10:57:30 PM 53.3197 -5.9999 301° West 475 547 34,000  Level FlightAware ADS-B (EGAA / BFS)
Thu 10:58:03 PM 53.3654 -6.1281 301° West 474 545 34,000  Level FlightAware ADS-B
Thu 10:58:34 PM 53.3993 -6.2236 301° West 473 544 34,000  Level FlightAware ADS-B (EGAA / BFS)
Thu 10:59:07 PM 53.4357 -6.3267 301° West 473 544 34,000  Level FlightAware ADS-B
Thu 10:59:38 PM 53.4714 -6.4281 301° West 473 544 34,000  Level FlightAware ADS-B (EGAA / BFS)
Thu 11:00:12 PM 53.5084 -6.5340 300° West 472 543 34,000  Level FlightAware ADS-B (EGAA / BFS)
Thu 11:00:42 PM 53.5412 -6.6280 300° West 472 543 34,000  Level FlightAware ADS-B (EGAA / BFS)
Thu 11:01:16 PM 53.5792 -6.7372 300° West 472 543 34,000  Level FlightAware ADS-B (EGAA / BFS)
Thu 11:01:20 PM 53.5833 -6.7492 299° West 468 539 34,000  Level FlightAware ADS-B
Thu 11:01:55 PM 53.6217 -6.8599 300° West 472 543 34,000  Level FlightAware ADS-B
Thu 11:02:20 PM 53.6496 -6.9410 299° West 467 537 34,000  Level FlightAware ADS-B
Thu 11:02:41 PM 53.6724 -7.0076 300° West 472 543 34,000  Level FlightAware ADS-B
Thu 11:03:20 PM 53.7144 -7.1304 299° West 468 539 34,000  Level FlightAware ADS-B
Thu 11:03:54 PM 53.7515 -7.2394 300° West 473 544 34,000  Level FlightAware ADS-B (EGAA / BFS)
Thu 11:04:01 PM 53.7595 -7.2631 299° West 470 541 34,000  Level FlightAware ADS-B
Thu 11:04:34 PM 53.7953 -7.3687 300° West 473 544 34,000  Level FlightAware ADS-B
Thu 11:04:59 PM 53.8215 -7.4461 300° West 473 544 34,000  Level FlightAware ADS-B
Thu 11:05:32 PM 53.8562 -7.5494 300° West 473 544 34,000  Level FlightAware ADS-B (EGAA / BFS)
Thu 11:06:02 PM 53.8894 -7.6488 299° West 472 543 34,000  Level FlightAware ADS-B (EGAA / BFS)
Thu 11:06:34 PM 53.9240 -7.7528 299° West 472 543 34,000  Level FlightAware ADS-B
Thu 11:06:35 PM 53.9249 -7.7555 299° West 470 541 34,000  Level FlightAware UK
Thu 11:07:05 PM 53.9568 -7.8521 299° West 474 545 34,000  Level FlightAware UK
Thu 11:07:06 PM 53.9581 -7.8555 299° West 475 547 34,000  Level FlightAware ADS-B (EGAA / BFS)
Thu 11:07:40 PM 53.9944 -7.9652 299° West 475 547 34,000  Level FlightAware ADS-B (EGAA / BFS)
Thu 11:08:10 PM 54.0257 -8.0602 299° West 475 547 34,000  Level FlightAware ADS-B (EGAA / BFS)
Thu 11:08:43 PM 54.0622 -8.1716 299° West 475 547 34,000  Level FlightAware ADS-B (EGAA / BFS)
Thu 11:09:13 PM 54.0935 -8.2674 299° West 475 547 34,000  Level FlightAware ADS-B (EGAA / BFS)
Thu 11:09:54 PM 54.1066 -8.3078 299° West 474 545 34,000  Level FlightAware ADS-B
Thu 11:10:05 PM 54.1490 -8.4383 299° West 472 543 34,000  Level FlightAware UK
Thu 11:10:35 PM 54.1808 -8.5369 299° West 472 543 34,000  Level FlightAware UK
Thu 11:11:05 PM 54.2122 -8.6348 299° West 472 543 34,000  Level FlightAware UK
Thu 11:11:21 PM 54.2290 -8.6873 299° West 473 544 34,000  Level FlightAware ADS-B (EGAA / BFS)
Thu 11:11:57 PM 54.2635 -8.7955 299° West 475 547 34,000  Level FlightAware ADS-B (EGAA / BFS)
Thu 11:12:27 PM 54.2972 -8.9015 299° West 476 548 34,000  Level FlightAware ADS-B (EGAA / BFS)
Thu 11:13:00 PM 54.3296 -9.0039 298° West 477 549 34,000  Level FlightAware ADS-B (EGAA / BFS)
Thu 11:13:32 PM 54.3338 -9.0171 298° West 477 549 34,000  Level FlightAware ADS-B (EGAA / BFS)
Fri 12:04:31 AM 56.0000 -20.0000 274° West 467 537 34,000  Level ETMS Enhanced Traffic Management System
Fri 12:05:00 AM 54.9497 -20.0271 271° West  Level Estimated
Fri 12:06:00 AM 54.9517 -20.2434 271° West  Level Estimated
Fri 12:07:00 AM 54.9533 -20.4598 271° West  Level Estimated
Fri 12:08:00 AM 54.9545 -20.6761 271° West  Level Estimated
Fri 12:09:00 AM 54.9554 -20.8925 270° West  Level Estimated
Fri 12:10:00 AM 56.0486 -21.3923 273° West 467 537 34,000  Level FlightAware Transoceanic
Fri 12:11:00 AM 56.0551 -21.6247 273° West 467 537 34,000  Level FlightAware Transoceanic
Fri 12:12:00 AM 56.0613 -21.8571 273° West 467 537 34,000  Level FlightAware Transoceanic
Fri 12:13:00 AM 56.0670 -22.0897 272° West 467 537 34,000  Level FlightAware Transoceanic
Fri 12:14:00 AM 56.0722 -22.3222 272° West 467 537 34,000  Level FlightAware Transoceanic
Fri 12:15:00 AM 56.0770 -22.5549 272° West 467 537 34,000  Level FlightAware Transoceanic
Fri 12:16:00 AM 56.0814 -22.7876 272° West 467 537 34,000  Level FlightAware Transoceanic
Fri 12:17:00 AM 56.0854 -23.0203 272° West 467 537 34,000  Level FlightAware Transoceanic
Fri 12:18:00 AM 56.0889 -23.2531 271° West 467 537 34,000  Level FlightAware Transoceanic
Fri 12:19:00 AM 56.0919 -23.4860 271° West 467 537 34,000  Level FlightAware Transoceanic
Fri 12:20:00 AM 56.0946 -23.7188 271° West 467 537 34,000  Level FlightAware Transoceanic
Fri 12:21:00 AM 56.0968 -23.9517 271° West 467 537 34,000  Level FlightAware Transoceanic
Fri 12:22:00 AM 56.0985 -24.1847 271° West 467 537 34,000  Level FlightAware Transoceanic
Fri 12:23:00 AM 56.0998 -24.4176 270° West 467 537 34,000  Level FlightAware Transoceanic
Fri 12:24:00 AM 56.1007 -24.6506 270° West 467 537 34,000  Level FlightAware Transoceanic
Fri 12:25:00 AM 56.1011 -24.8835 270° West 467 537 34,000  Level FlightAware Transoceanic
Fri 12:26:00 AM 56.1011 -25.1165 270° West 467 537 34,000  Level FlightAware Transoceanic
Fri 12:27:00 AM 56.1007 -25.3494 270° West 467 537 34,000  Level FlightAware Transoceanic
Fri 12:28:00 AM 56.0998 -25.5824 270° West 467 537 34,000  Level FlightAware Transoceanic
Fri 12:29:00 AM 56.0985 -25.8153 269° West 467 537 34,000  Level FlightAware Transoceanic
Fri 12:30:00 AM 56.0968 -26.0483 269° West 467 537 34,000  Level FlightAware Transoceanic
Fri 12:31:00 AM 56.0946 -26.2812 269° West 467 537 34,000  Level FlightAware Transoceanic
Fri 12:32:00 AM 56.0919 -26.5140 269° West 467 537 34,000  Level FlightAware Transoceanic
Fri 12:33:00 AM 56.0889 -26.7469 269° West 467 537 34,000  Level FlightAware Transoceanic
Fri 12:34:00 AM 56.0854 -26.9797 268° West 467 537 34,000  Level FlightAware Transoceanic
Fri 12:35:00 AM 56.0814 -27.2124 268° West 467 537 34,000  Level FlightAware Transoceanic
Fri 12:36:00 AM 56.0770 -27.4451 268° West 467 537 34,000  Level FlightAware Transoceanic
Fri 12:37:00 AM 56.0722 -27.6778 268° West 467 537 34,000  Level FlightAware Transoceanic
Fri 12:38:00 AM 56.0670 -27.9103 268° West 467 537 34,000  Level FlightAware Transoceanic
Fri 12:39:00 AM 56.0613 -28.1429 267° West 467 537 34,000  Level FlightAware Transoceanic
Fri 12:40:00 AM 56.0551 -28.3753 267° West 467 537 34,000  Level FlightAware Transoceanic
Fri 12:41:00 AM 56.0486 -28.6077 267° West 467 537 34,000  Level FlightAware Transoceanic
Fri 12:42:00 AM 56.0416 -28.8400 267° West 467 537 34,000  Level FlightAware Transoceanic
Fri 12:43:00 AM 56.0341 -29.0722 267° West 467 537 34,000  Level FlightAware Transoceanic
Fri 12:44:00 AM 56.0262 -29.3043 266° West 467 537 34,000  Level FlightAware Transoceanic
Fri 12:45:00 AM 56.0179 -29.5363 266° West 467 537 34,000  Level FlightAware Transoceanic
Fri 12:46:00 AM 56.0092 -29.7682 266° West 467 537 34,000  Level FlightAware Transoceanic
Fri 12:47:00 AM 55.9894 -29.9875 261° West  Level Estimated
Fri 12:48:00 AM 55.9692 -30.2067 261° West  Level Estimated
Fri 12:49:00 AM 55.9487 -30.4256 261° West  Level Estimated
Fri 12:50:00 AM 55.9278 -30.6442 260° West  Level Estimated
Fri 12:51:00 AM 55.9064 -30.8626 260° West  Level Estimated
Fri 12:52:00 AM 55.8847 -31.0808 260° West  Level Estimated
Fri 12:53:00 AM 55.8626 -31.2987 260° West  Level Estimated
Fri 12:54:00 AM 55.8402 -31.5164 260° West  Level Estimated
Fri 12:55:00 AM 55.8173 -31.7338 259° West  Level Estimated
Fri 12:56:00 AM 55.7940 -31.9510 259° West  Level Estimated
Fri 12:57:00 AM 55.7704 -32.1679 259° West  Level Estimated
Fri 12:58:00 AM 55.7464 -32.3845 259° West  Level Estimated
Fri 12:59:00 AM 55.7220 -32.6009 259° West  Level Estimated
Fri 01:00:00 AM 55.6973 -32.8170 259° West  Level Estimated
Fri 01:01:00 AM 55.6721 -33.0328 258° West  Level Estimated
Fri 01:02:00 AM 55.6466 -33.2484 258° West  Level Estimated
Fri 01:03:00 AM 55.6207 -33.4636 258° West  Level Estimated
Fri 01:04:00 AM 55.5944 -33.6786 258° West  Level Estimated
Fri 01:05:00 AM 55.5677 -33.8933 258° West  Level Estimated
Fri 01:06:00 AM 55.5407 -34.1077 258° West  Level Estimated
Fri 01:07:00 AM 55.5133 -34.3218 257° West  Level Estimated
Fri 01:08:00 AM 55.4855 -34.5356 257° West  Level Estimated
Fri 01:09:00 AM 55.4574 -34.7491 257° West  Level Estimated
Fri 01:10:00 AM 55.4288 -34.9623 257° West  Level Estimated
Fri 01:11:00 AM 55.3999 -35.1752 257° West  Level Estimated
Fri 01:12:00 AM 55.3707 -35.3877 256° West  Level Estimated
Fri 01:13:00 AM 55.3411 -35.6000 256° West  Level Estimated
Fri 01:14:00 AM 55.3111 -35.8119 256° West  Level Estimated
Fri 01:15:00 AM 55.2807 -36.0235 256° West  Level Estimated
Fri 01:16:00 AM 55.2500 -36.2348 256° West  Level Estimated
Fri 01:17:00 AM 55.2189 -36.4457 256° West  Level Estimated
Fri 01:18:00 AM 55.1874 -36.6563 255° West  Level Estimated
Fri 01:19:00 AM 55.1556 -36.8666 255° West  Level Estimated
Fri 01:20:00 AM 55.1234 -37.0766 255° West  Level Estimated
Fri 01:21:00 AM 55.0909 -37.2862 255° West  Level Estimated
Fri 01:22:00 AM 55.0580 -37.4955 255° West  Level Estimated
Fri 01:23:00 AM 55.0247 -37.7044 255° West  Level Estimated
Fri 01:24:00 AM 54.9911 -37.9130 254° West  Level Estimated
Fri 01:25:00 AM 54.9572 -38.1212 254° West  Level Estimated
Fri 01:26:00 AM 54.9228 -38.3290 254° West  Level Estimated
Fri 01:27:00 AM 54.8882 -38.5366 254° West  Level Estimated
Fri 01:28:00 AM 54.8531 -38.7437 254° West  Level Estimated
Fri 01:29:00 AM 54.8177 -38.9505 254° West  Level Estimated
Fri 01:30:00 AM 54.7820 -39.1569 253° West  Level Estimated
Fri 01:31:00 AM 54.7459 -39.3630 253° West  Level Estimated
Fri 01:32:00 AM 54.7095 -39.5687 253° West  Level Estimated
Fri 01:33:00 AM 54.6727 -39.7740 253° West  Level Estimated
Fri 01:34:00 AM 54.6356 -39.9790 253° West  Level Estimated
Fri 01:35:00 AM 54.5981 -40.1835 253° West  Level Estimated
Fri 01:36:00 AM 54.5603 -40.3877 252° West  Level Estimated
Fri 01:37:00 AM 54.5221 -40.5915 252° West  Level Estimated
Fri 01:38:00 AM 54.4836 -40.7950 252° West  Level Estimated
Fri 01:39:00 AM 54.4448 -40.9980 252° West  Level Estimated
Fri 01:40:00 AM 54.4056 -41.2007 252° West  Level Estimated
Fri 01:41:00 AM 54.3661 -41.4030 252° West  Level Estimated
Fri 01:42:00 AM 54.3262 -41.6049 251° West  Level Estimated
Fri 01:42:08 AM 56.1000 -42.5000 251° West 460 529 34,000  Level Gander Center
Fri 01:43:00 AM 54.2860 -41.8063 251° West  Level Estimated
Fri 01:43:08 AM 56.1000 -42.7500 270° West 460 529 34,000  Level Gander Center
Fri 01:44:00 AM 54.2455 -42.0074 251° West  Level Estimated
Fri 01:44:08 AM 56.1000 -42.9667 270° West 460 529 34,000  Level Gander Center
Fri 01:45:00 AM 54.2046 -42.2081 251° West  Level Estimated
Fri 01:45:08 AM 56.1167 -43.2000 277° West 460 529 34,000  Level Gander Center
Fri 01:46:00 AM 54.1634 -42.4084 251° West  Level Estimated
Fri 01:46:08 AM 56.1167 -43.4167 270° West 460 529 34,000  Level Gander Center
Fri 01:47:00 AM 54.1219 -42.6083 251° West  Level Estimated
Fri 01:47:08 AM 56.1167 -43.6333 270° West 460 529 34,000  Level Gander Center
Fri 01:48:08 AM 56.1333 -43.8667 277° West 450 518 34,000  Level Gander Center
Fri 01:49:08 AM 56.1333 -44.0833 270° West 450 518 34,000  Level Gander Center
Fri 01:50:08 AM 56.1167 -44.3000 262° West 450 518 34,000  Level Gander Center
Fri 01:51:08 AM 56.1167 -44.5500 270° West 450 518 34,000  Level Gander Center
Fri 01:52:08 AM 56.1333 -44.7500 279° West 450 518 34,000  Level Gander Center
Fri 01:53:08 AM 56.1333 -44.9667 270° West 450 518 34,000  Level Gander Center
Fri 01:54:08 AM 56.1167 -45.2167 263° West 450 518 34,000  Level Gander Center
Fri 01:55:08 AM 56.1333 -45.4333 278° West 450 518 34,000  Level Gander Center
Fri 01:56:08 AM 56.1333 -45.6500 270° West 450 518 34,000  Level Gander Center
Fri 01:57:08 AM 56.1167 -45.8667 262° West 450 518 34,000  Level Gander Center
Fri 01:58:08 AM 56.1333 -46.1000 277° West 450 518 34,000  Level Gander Center
Fri 01:59:08 AM 56.1167 -46.3167 262° West 440 506 34,000  Level Gander Center
Fri 02:00:08 AM 56.1167 -46.5333 270° West 440 506 34,000  Level Gander Center
Fri 02:01:08 AM 56.1000 -46.7500 262° West 440 506 34,000  Level Gander Center
Fri 02:02:08 AM 56.1167 -46.9500 279° West 440 506 34,000  Level Gander Center
Fri 02:03:08 AM 56.1000 -47.1667 262° West 440 506 34,000  Level Gander Center
Fri 02:04:08 AM 56.1000 -47.4167 270° West 440 506 34,000  Level Gander Center
Fri 02:05:08 AM 56.1000 -47.6333 270° West 440 506 34,000 55 Level Gander Center
Fri 02:40:20 AM 55.7500 -54.7167 227° Southwest 430 495 36,000 55 Climbing Gander Center
Fri 02:41:00 AM 55.3725 -55.2971 250° West  Level FlightAware Approximate
Fri 02:41:20 AM 55.7167 -54.9000 252° West 430 495 36,000  Level Gander Center
Fri 02:42:00 AM 55.3307 -55.4986 250° West  Level FlightAware Approximate
Fri 02:42:20 AM 55.6667 -55.1167 248° West 440 506 36,100  Level Gander Center
Fri 02:43:00 AM 55.2885 -55.6997 250° West  Level FlightAware Approximate
Fri 02:43:20 AM 55.5833 -55.2833 229° Southwest 440 506 36,600  Level Gander Center
Fri 02:44:00 AM 55.2069 -55.8558 228° Southwest  Level Estimated
Fri 02:44:20 AM 55.5000 -55.4333 226° Southwest 450 518 37,500  Level Gander Center
Fri 02:45:00 AM 55.1251 -56.0112 227° Southwest  Level Estimated
Fri 02:45:20 AM 55.4000 -55.6000 223° Southwest 450 518 38,000  Level Gander Center
Fri 02:46:20 AM 55.3333 -55.7500 232° Southwest 450 518 38,000  Level Gander Center
Fri 02:47:20 AM 55.2500 -55.9167 229° Southwest 450 518 38,000  Level Gander Center
Fri 02:48:20 AM 55.1667 -56.1000 232° Southwest 450 518 38,000  Level Gander Center
Fri 02:49:20 AM 55.0833 -56.2667 229° Southwest 450 518 38,000  Level Gander Center
Fri 02:50:20 AM 54.9833 -56.4167 221° Southwest 450 518 38,000  Level Gander Center
Fri 02:52:18 AM 54.8333 -56.7333 231° Southwest 450 518 38,000  Level Moncton Center
Fri 02:53:18 AM 54.7500 -56.9000 229° Southwest 450 518 38,000  Level Moncton Center
Fri 02:54:18 AM 54.6667 -57.0500 226° Southwest 450 518 38,000  Level Moncton Center
Fri 02:55:18 AM 54.5833 -57.2167 229° Southwest 450 518 38,000  Level Moncton Center
Fri 02:56:18 AM 54.5000 -57.3667 226° Southwest 450 518 38,000  Level Moncton Center
Fri 02:57:18 AM 54.4000 -57.5333 224° Southwest 450 518 38,000  Level Moncton Center
Fri 02:58:18 AM 54.3333 -57.6833 233° Southwest 450 518 38,000  Level Moncton Center
Fri 02:59:18 AM 54.2333 -57.8500 224° Southwest 460 529 38,000  Level Moncton Center
Fri 03:00:18 AM 54.1500 -58.0000 227° Southwest 460 529 38,000  Level Moncton Center
Fri 03:01:18 AM 54.0667 -58.1500 227° Southwest 460 529 38,000  Level Moncton Center
Fri 03:02:18 AM 53.9833 -58.3167 230° Southwest 460 529 38,000  Level Moncton Center
Fri 03:03:18 AM 53.8833 -58.5000 227° Southwest 460 529 38,000  Level Moncton Center
Fri 03:04:18 AM 53.8000 -58.6500 227° Southwest 460 529 38,000  Level Moncton Center
Fri 03:05:18 AM 53.7167 -58.8000 227° Southwest 460 529 38,000  Level Moncton Center
Fri 03:06:18 AM 53.6167 -58.9500 222° Southwest 460 529 38,000  Level Moncton Center
Fri 03:07:18 AM 53.5333 -59.1000 227° Southwest 460 529 38,000  Level Moncton Center
Fri 03:08:18 AM 53.4500 -59.2500 227° Southwest 460 529 38,000  Level Moncton Center
Fri 03:09:18 AM 53.3500 -59.4167 225° Southwest 460 529 38,000  Level Moncton Center
Fri 03:10:18 AM 53.2667 -59.5667 227° Southwest 460 529 38,000  Level Moncton Center
Fri 03:11:18 AM 53.1833 -59.7000 224° Southwest 460 529 38,000  Level Moncton Center
Fri 03:12:18 AM 53.0833 -59.8500 222° Southwest 460 529 38,000  Level Moncton Center
Fri 03:13:18 AM 53.0000 -60.0000 227° Southwest 460 529 38,000  Level Moncton Center
Fri 03:14:18 AM 52.9167 -60.1500 227° Southwest 460 529 38,000  Level Moncton Center
Fri 03:15:18 AM 52.8167 -60.3333 228° Southwest 460 529 38,000  Level Moncton Center
Fri 03:16:18 AM 52.7167 -60.4833 222° Southwest 460 529 38,000  Level Moncton Center
Fri 03:17:18 AM 52.6333 -60.6167 224° Southwest 460 529 38,000  Level Moncton Center
Fri 03:18:18 AM 52.5500 -60.7667 228° Southwest 460 529 38,000  Level Moncton Center
Fri 03:20:18 AM 52.3500 -61.0500 221° Southwest 460 529 38,000  Level Moncton Center
Fri 03:21:18 AM 52.2833 -61.2000 234° Southwest 460 529 38,000  Level Moncton Center
Fri 03:22:18 AM 52.1833 -61.3333 219° Southwest 460 529 38,000  Level Moncton Center
Fri 03:23:18 AM 52.0833 -61.4833 223° Southwest 460 529 38,000  Level Moncton Center
Fri 03:24:18 AM 51.9833 -61.6500 226° Southwest 460 529 38,000  Level Moncton Center
Fri 03:25:18 AM 51.9000 -61.8000 228° Southwest 460 529 38,000  Level Moncton Center
Fri 03:26:18 AM 51.8167 -61.9333 225° Southwest 460 529 38,000  Level Moncton Center
Fri 03:27:18 AM 51.7167 -62.0667 220° Southwest 460 529 38,000  Level Moncton Center
Fri 03:28:18 AM 51.6167 -62.2167 223° Southwest 460 529 38,000  Level Moncton Center
Fri 03:29:18 AM 51.5167 -62.3500 220° Southwest 470 541 38,000  Level Moncton Center
Fri 03:30:18 AM 51.4333 -62.5167 231° Southwest 460 529 38,000  Level Moncton Center
Fri 03:31:18 AM 51.3333 -62.6500 220° Southwest 470 541 38,000  Level Moncton Center
Fri 03:32:18 AM 51.2333 -62.8000 223° Southwest 470 541 38,000  Level Moncton Center
Fri 03:33:18 AM 51.1333 -62.9333 220° Southwest 470 541 38,000  Level Moncton Center
Fri 03:34:18 AM 51.0333 -63.0667 220° Southwest 470 541 38,000  Level Moncton Center
Fri 03:35:18 AM 50.9500 -63.2000 225° Southwest 470 541 38,000  Level Moncton Center
Fri 03:36:18 AM 50.8667 -63.3667 232° Southwest 470 541 38,000  Level Moncton Center
Fri 03:37:18 AM 50.7667 -63.5000 220° Southwest 470 541 38,000  Level Moncton Center
Fri 03:38:18 AM 50.6667 -63.6333 220° Southwest 470 541 38,000  Level Moncton Center
Fri 03:40:20 AM 50.4667 -63.9167 222° Southwest 480 552 38,000  Level Gander Center
Fri 03:41:20 AM 50.3500 -64.0667 219° Southwest 460 529 38,000  Level Gander Center
Fri 03:42:20 AM 50.2500 -64.2167 224° Southwest 490 564 38,000  Level Gander Center
Fri 03:43:20 AM 50.1667 -64.3333 222° Southwest 450 518 38,000  Level Gander Center
Fri 03:44:20 AM 50.0500 -64.4833 220° Southwest 460 529 38,000  Level Gander Center
Fri 03:45:18 AM 49.9667 -64.6333 229° Southwest 490 564 38,000  Level Moncton Center
Fri 03:46:18 AM 49.8667 -64.7667 221° Southwest 470 541 38,000  Level Moncton Center
Fri 03:47:18 AM 49.7500 -64.8833 213° Southwest 480 552 38,000  Level Moncton Center
Fri 03:48:18 AM 49.6500 -65.0167 221° Southwest 480 552 38,000  Level Moncton Center
Fri 03:49:18 AM 49.5667 -65.1667 229° Southwest 480 552 38,000  Level Moncton Center
Fri 03:50:18 AM 49.4500 -65.3000 217° Southwest 480 552 38,000  Level Moncton Center
Fri 03:51:18 AM 49.3667 -65.4333 226° Southwest 480 552 38,000  Level Moncton Center
Fri 03:52:18 AM 49.2500 -65.5833 220° Southwest 470 541 38,000  Level Moncton Center
Fri 03:53:18 AM 49.1667 -65.7000 222° Southwest 470 541 38,000  Level Moncton Center
Fri 03:54:18 AM 49.0667 -65.8333 221° Southwest 480 552 38,000  Level Moncton Center
Fri 03:55:18 AM 48.9667 -65.9833 225° Southwest 470 541 38,000  Level Moncton Center
Fri 03:56:18 AM 48.8667 -66.1000 218° Southwest 470 541 38,000  Level Moncton Center
Fri 03:57:18 AM 48.7500 -66.2333 217° Southwest 470 541 38,000  Level Moncton Center
Fri 03:58:18 AM 48.6667 -66.3500 223° Southwest 470 541 38,000  Level Moncton Center
Fri 03:59:18 AM 48.5667 -66.4667 218° Southwest 480 552 38,000  Level Moncton Center
Fri 04:00:18 AM 48.4667 -66.6000 222° Southwest 470 541 38,000  Level Moncton Center
Fri 04:01:18 AM 48.3667 -66.7333 222° Southwest 470 541 38,000  Level Moncton Center
Fri 04:02:18 AM 48.2667 -66.8667 222° Southwest 470 541 38,000  Level Moncton Center
Fri 04:03:18 AM 48.1500 -66.9833 214° Southwest 470 541 38,000  Level Moncton Center
Fri 04:04:18 AM 48.0500 -67.1000 218° Southwest 460 529 38,000  Level Moncton Center
Fri 04:09:58 AM 47.4983 -67.8193 225° Southwest 466 536 38,000  Level FlightAware ADS-B
Fri 04:12:16 AM 47.3460 -68.0485 225° Southwest 470 541 38,000  Level FlightAware ADS-B
Fri 04:12:52 AM 47.2406 -68.2055 225° Southwest 471 542 38,000  Level FlightAware ADS-B
Fri 04:14:00 AM 47.1790 -68.2968 225° Southwest 472 543 38,000  Level FlightAware ADS-B
Fri 04:14:47 AM 47.0585 -68.4745 225° Southwest 472 543 38,000 -444 Level FlightAware ADS-B
Fri 04:16:15 AM 46.9301 -68.6622 225° Southwest 459 528 37,000 -1,096 Descending FlightAware ADS-B
Fri 04:18:26 AM 46.7389 -68.9409 225° Southwest 605 696 34,000 -1,047 Descending FlightAware ADS-B
Fri 04:19:07 AM 46.6808 -69.0244 225° Southwest 426 490 34,000  Level FlightAware ADS-B
Fri 04:19:44 AM 46.6284 -69.0993 225° Southwest 424 488 34,000  Level FlightAware ADS-B
Fri 04:20:14 AM 46.5886 -69.1565 225° Southwest 424 488 34,000  Level FlightAware ADS-B
Fri 04:20:50 AM 46.5367 -69.2306 225° Southwest 423 487 34,000  Level FlightAware ADS-B
Fri 04:21:30 AM 46.4819 -69.3089 225° Southwest 422 486 34,000  Level FlightAware ADS-B
Fri 04:22:06 AM 46.4307 -69.3816 224° Southwest 422 486 34,000  Level FlightAware ADS-B
Fri 04:22:46 AM 46.3750 -69.4608 225° Southwest 421 484 34,000  Level FlightAware ADS-B
Fri 04:23:32 AM 46.3130 -69.5484 224° Southwest 421 484 34,000  Level FlightAware ADS-B
Fri 04:24:11 AM 46.2577 -69.6263 224° Southwest 421 484 34,000  Level FlightAware ADS-B
Fri 04:24:47 AM 46.2079 -69.6963 224° Southwest 421 484 34,000  Level FlightAware ADS-B
Fri 04:25:19 AM 46.1659 -69.7552 224° Southwest 421 484 34,000  Level FlightAware ADS-B
Fri 04:25:49 AM 46.1212 -69.8176 224° Southwest 422 486 34,000  Level FlightAware ADS-B
Fri 04:26:24 AM 46.0723 -69.8858 224° Southwest 421 484 34,000  Level FlightAware ADS-B
Fri 04:26:55 AM 46.0290 -69.9462 224° Southwest 422 486 34,000  Level FlightAware ADS-B
Fri 04:27:31 AM 45.9785 -70.0162 224° Southwest 423 487 34,000  Level FlightAware ADS-B
Fri 04:28:02 AM 45.9357 -70.0754 224° Southwest 424 488 34,000  Level FlightAware ADS-B
Fri 04:28:32 AM 45.8923 -70.1354 224° Southwest 424 488 34,000  Level FlightAware ADS-B
Fri 04:29:05 AM 45.8459 -70.1993 224° Southwest 425 489 34,000  Level FlightAware ADS-B
Fri 04:29:35 AM 45.8031 -70.2581 224° Southwest 426 490 34,000  Level FlightAware ADS-B
Fri 04:30:08 AM 45.7578 -70.3204 224° Southwest 426 490 34,000  Level FlightAware ADS-B
Fri 04:30:38 AM 45.7150 -70.3791 224° Southwest 426 490 34,000  Level FlightAware ADS-B
Fri 04:31:11 AM 45.6683 -70.4428 224° Southwest 426 490 34,000  Level FlightAware ADS-B
Fri 04:31:41 AM 45.6250 -70.5016 224° Southwest 426 490 34,000  Level FlightAware ADS-B
Fri 04:32:11 AM 45.5812 -70.5613 224° Southwest 426 490 34,000  Level FlightAware ADS-B
Fri 04:32:44 AM 45.5440 -70.6117 224° Southwest 428 493 34,000  Level FlightAware ADS-B
Fri 04:33:15 AM 45.4904 -70.6842 224° Southwest 429 494 34,000  Level FlightAware ADS-B
Fri 04:33:45 AM 45.4473 -70.7423 224° Southwest 429 494 34,000  Level FlightAware ADS-B
Fri 04:34:31 AM 45.3822 -70.8300 224° Southwest 430 495 34,000  Level FlightAware ADS-B
Fri 04:35:01 AM 45.3646 -70.8536 223° Southwest 429 494 34,000  Level FlightAware ADS-B
Fri 04:35:34 AM 45.2900 -70.9536 223° Southwest 429 494 34,000  Level FlightAware ADS-B
Fri 04:36:16 AM 45.2894 -70.9544 223° Southwest 428 493 34,000  Level FlightAware ADS-B
Fri 04:37:04 AM 45.1609 -71.1256 223° Southwest 426 490 34,000  Level FlightAware ADS-B
Fri 04:37:43 AM 45.1060 -71.1986 223° Southwest 424 488 34,000  Level FlightAware ADS-B
Fri 04:38:27 AM 45.1443 -71.1477 223° Southwest 423 487 34,000  Level FlightAware ADS-B
Fri 04:39:54 AM 44.9180 -71.4470 224° Southwest 421 484 34,000  Level FlightAware ADS-B
Fri 04:40:12 AM 44.8922 -71.4805 223° Southwest 420 483 34,000  Level FlightAware ADS-B (EPKK / KRK)
Fri 04:40:42 AM 44.8509 -71.5345 223° Southwest 420 483 34,000  Level FlightAware ADS-B (EPKK / KRK)
Fri 04:41:13 AM 44.8056 -71.5936 223° Southwest 421 484 34,000  Level FlightAware ADS-B (EPKK / KRK)
Fri 04:41:43 AM 44.7635 -71.6487 223° Southwest 422 486 34,000  Level FlightAware ADS-B (EPKK / KRK)
Fri 04:41:44 AM 44.7620 -71.6500 223° Southwest 423 487 34,000  Level FlightAware ADS-B
Fri 04:42:14 AM 44.7202 -71.7049 223° Southwest 423 487 34,000  Level FlightAware ADS-B (EPKK / KRK)
Fri 04:42:31 AM 44.6970 -71.7350 223° Southwest 424 488 34,000  Level FlightAware ADS-B
Fri 04:42:44 AM 44.6760 -71.7622 223° Southwest 424 488 34,000  Level FlightAware ADS-B (EPKK / KRK)
Fri 04:43:15 AM 44.6311 -71.8204 223° Southwest 425 489 34,000  Level FlightAware ADS-B (EPKK / KRK)
Fri 04:43:55 AM 44.5735 -71.8949 223° Southwest 425 489 34,000  Level FlightAware ADS-B (EPKK / KRK)
Fri 04:44:01 AM 44.5650 -71.9050 223° Southwest 426 490 34,000  Level FlightAware ADS-B
Fri 04:44:30 AM 44.5259 -71.9562 223° Southwest 425 489 34,000  Level FlightAware ADS-B (EPKK / KRK)
Fri 04:44:36 AM 44.5150 -71.9700 223° Southwest 426 490 34,000  Level FlightAware ADS-B
Fri 04:45:00 AM 44.4848 -72.0090 222° Southwest 426 490 34,000  Level FlightAware ADS-B (EPKK / KRK)
Fri 04:45:05 AM 44.4730 -72.0230 222° Southwest 428 493 34,000  Level FlightAware ADS-B
Fri 04:45:35 AM 44.4280 -72.0740 217° Southwest 437 503 34,000  Level FlightAware ADS-B
Fri 04:46:10 AM 44.3650 -72.1300 211° Southwest 447 514 34,000  Level FlightAware ADS-B
Fri 04:46:42 AM 44.3110 -72.1740 210° Southwest 448 516 34,000  Level FlightAware ADS-B
Fri 04:47:17 AM 44.2460 -72.2250 210° Southwest 447 514 34,000  Level FlightAware ADS-B
Fri 04:47:26 AM 44.2286 -72.2387 210° Southwest 445 512 34,000  Level FlightAware ADS-B (EPKK / KRK)
Fri 04:47:47 AM 44.1910 -72.2690 211° Southwest 446 513 34,000  Level FlightAware ADS-B
Fri 04:48:01 AM 44.1674 -72.2879 210° Southwest 444 511 34,000  Level FlightAware ADS-B (EPKK / KRK)
Fri 04:48:23 AM 44.1270 -72.3200 211° Southwest 444 511 34,000  Level FlightAware ADS-B
Fri 04:48:50 AM 44.0813 -72.3574 210° Southwest 349 402 34,000  Level FlightAware ADS-B (KBTV)
Fri 04:48:59 AM 44.0650 -72.3710 211° Southwest 444 511 34,000  Level FlightAware ADS-B
Fri 04:49:33 AM 44.0040 -72.4200 211° Southwest 444 511 34,000  Level FlightAware ADS-B
Fri 04:50:05 AM 43.9480 -72.4640 211° Southwest 443 510 34,000  Level FlightAware ADS-B
Fri 04:50:08 AM 43.9414 -72.4696 210° Southwest 442 509 34,000  Level FlightAware ADS-B (KASH)
Fri 04:50:37 AM 43.8920 -72.5090 210° Southwest 442 509 34,000  Level FlightAware ADS-B
Fri 04:50:45 AM 43.8770 -72.5209 211° Southwest 434 499 34,000  Level FlightAware ADS-B (KASH)
Fri 04:51:19 AM 43.8159 -72.5695 211° Southwest 434 499 34,000  Level FlightAware ADS-B (KASH)
Fri 04:51:42 AM 43.7760 -72.6010 210° Southwest 442 509 34,000  Level FlightAware ADS-B
Fri 04:51:55 AM 43.7515 -72.6205 210° Southwest 441 507 34,000  Level FlightAware ADS-B (KASH)
Fri 04:52:23 AM 43.7030 -72.6590 210° Southwest 441 507 34,000  Level FlightAware ADS-B
Fri 04:52:40 AM 43.6728 -72.6825 210° Southwest 433 498 34,000  Level FlightAware ADS-B (KASH)
Fri 04:52:51 AM 43.6550 -72.6960 210° Southwest 441 507 34,000  Level FlightAware ADS-B
Fri 04:53:23 AM 43.5966 -72.7426 210° Southwest 433 498 34,000  Level FlightAware ADS-B (KASH)
Fri 04:53:37 AM 43.5730 -72.7610 210° Southwest 441 507 34,000  Level FlightAware ADS-B
Fri 04:54:07 AM 43.5230 -72.8010 210° Southwest 441 507 34,000  Level FlightAware ADS-B
Fri 04:54:54 AM 43.4380 -72.8670 210° Southwest 440 506 34,000  Level FlightAware ADS-B
Fri 04:55:26 AM 43.3830 -72.9100 210° Southwest 440 506 34,000  Level FlightAware ADS-B
Fri 04:55:54 AM 43.3310 -72.9500 210° Southwest 442 509 34,000  Level FlightAware ADS-B
Fri 04:56:14 AM 43.2957 -72.9781 210° Southwest 441 507 34,000  Level FlightAware ADS-B (KASH)
Fri 04:56:30 AM 43.2680 -73.0000 210° Southwest 442 509 34,000  Level FlightAware ADS-B
Fri 04:57:15 AM 43.1880 -73.0620 210° Southwest 442 509 34,000  Level FlightAware ADS-B
Fri 04:59:54 AM 43.2307 -73.0285 209° Southwest 441 507 34,000 -722 Level FlightAware ADS-B
Fri 05:02:39 AM 42.6356 -73.4851 209° Southwest 394 453 30,100 -1,441 Descending FlightAware ADS-B
Fri 05:03:43 AM 42.5467 -73.5531 209° Southwest 393 452 28,500 -1,597 Descending Boston Center
Fri 05:04:43 AM 42.4558 -73.6211 209° Southwest 380 437 26,800 -1,700 Descending Boston Center
Fri 05:05:43 AM 42.3658 -73.6897 209° Southwest 374 430 25,100 -1,650 Descending Boston Center
Fri 05:06:43 AM 42.2772 -73.7561 209° Southwest 371 427 23,500 -1,650 Descending Boston Center
Fri 05:07:43 AM 42.1903 -73.8197 208° Southwest 361 415 21,800 -1,636 Descending Boston Center
Fri 05:08:44 AM 42.1047 -73.8844 209° Southwest 356 410 20,200 -1,736 Descending Boston Center
Fri 05:09:44 AM 42.0094 -73.9553 209° Southwest 350 403 18,300 -1,700 Descending Boston Center
Fri 05:10:44 AM 41.9294 -74.0139 209° Southwest 329 379 16,800 -1,463 Descending Boston Center
Fri 05:11:47 AM 41.8558 -74.0689 209° Southwest 307 353 15,300 -1,415 Descending Boston Center
Fri 05:12:47 AM 41.7828 -74.1228 209° Southwest 303 349 13,900 -1,475 Descending Boston Center
Fri 05:13:45 AM 41.7106 -74.1750 208° Southwest 299 344 12,400 -1,525 Descending Boston Center
Fri 05:14:45 AM 41.6347 -74.2308 209° Southwest 312 359 10,900 -1,300 Descending Boston Center
Fri 05:15:45 AM 41.5608 -74.2847 209° Southwest 305 351 9,800 -1,171 Descending Boston Center
Fri 05:16:48 AM 41.4936 -74.3336 209° Southwest 282 325 8,500 -1,268 Descending Boston Center
Fri 05:17:48 AM 41.4269 -74.3822 209° Southwest 278 320 7,200 -776 Descending Boston Center
Fri 05:18:44 AM 41.3667 -74.4167 203° Southwest 253 291 7,000 -103 Descending New York TRACON
Fri 05:19:44 AM 41.3000 -74.4500 201° Southwest 254 292 7,000  Level New York TRACON
Fri 05:20:38 AM 41.2333 -74.4667 191° South 258 297 7,000  Level New York TRACON
Fri 05:21:38 AM 41.1667 -74.5000 201° Southwest 257 296 7,000 53 Level New York TRACON
Fri 05:22:32 AM 41.1000 -74.5167 191° South 260 299 7,100 55 Climbing New York TRACON
Fri 05:23:27 AM 41.0333 -74.5333 191° South 261 300 7,100 -52 Level New York TRACON
Fri 05:24:27 AM 40.9667 -74.5500 191° South 265 305 7,000 -526 Descending New York TRACON
Fri 05:25:21 AM 40.9000 -74.5500 180° South 261 300 6,100 -1,000 Descending New York TRACON
Fri 05:26:21 AM 40.8333 -74.5667 191° South 248 285 5,100 -895 Descending New York TRACON
Fri 05:27:15 AM 40.7667 -74.5667 180° South 245 282 4,400 -1,000 Descending New York TRACON
Fri 05:28:15 AM 40.7000 -74.5833 191° South 237 273 3,200 -700 Descending New York TRACON
Fri 05:29:15 AM 40.6500 -74.5833 180° South 208 239 3,000 -100 Descending New York TRACON
Fri 05:30:15 AM 40.6000 -74.5500 153° Southeast 194 223 3,000  Level New York TRACON
Fri 05:31:09 AM 40.5667 -74.5000 131° Southeast 176 203 3,000  Level New York TRACON
Fri 05:32:09 AM 40.5500 -74.4500 114° Southeast 167 192 3,000  Level New York TRACON
Fri 05:33:04 AM 40.5333 -74.4000 114° Southeast 169 194 3,000  Level New York TRACON
Fri 05:34:04 AM 40.5333 -74.3333 90° East 176 203 3,000  Level New York TRACON
Fri 05:35:04 AM 40.5333 -74.2833 90° East 169 194 3,000 -300 Level New York TRACON
Fri 05:36:04 AM 40.5833 -74.2333 37° Northeast 179 206 2,400 -750 Descending New York TRACON
Fri 05:37:04 AM 40.6167 -74.2167 21° North 155 178 1,500 -850 Descending New York TRACON
Fri 05:38:04 AM 40.6500 -74.2000 21° North 134 154 700 -800 Descending New York TRACON

Login

Don't have an account? Register now (free) for customized features, flight alerts, and more!